<?xml version="1.0" encoding="UTF-8" standalone="no" ?>
<gpx xmlns="http://www.topografix.com/GPX/1/1" xmlns:xsi="http://www.w3.org/2001/XMLSchema-instance" xsi:schemaLocation="http://www.topografix.com/GPX/1/1 http://www.topografix.com/GPX/1/1/gpx.xsd" version="1.1" creator="VisuGPX - https://www.visugpx.com">
  <metadata>
    <name>Gt georges-Pruillé</name>
  </metadata>
  <trk>
    <name><![CDATA[2009-09-26-11-54-20 on GPSies.com]]></name>
    <trkseg>
      <trkpt lat="47.98968" lon="0.12915">
        <ele>74.496</ele>
        <time>2009-09-26T13:01:03Z</time>
      </trkpt>
      <trkpt lat="47.98984" lon="0.12892">
        <ele>74.983</ele>
        <time>2009-09-26T13:01:10Z</time>
      </trkpt>
      <trkpt lat="47.99" lon="0.12868">
        <ele>74.925</ele>
        <time>2009-09-26T13:01:17Z</time>
      </trkpt>
      <trkpt lat="47.99016" lon="0.12846">
        <ele>75.767</ele>
        <time>2009-09-26T13:01:23Z</time>
      </trkpt>
      <trkpt lat="47.99044" lon="0.12819">
        <ele>76.786</ele>
        <time>2009-09-26T13:01:32Z</time>
      </trkpt>
      <trkpt lat="47.99058" lon="0.12805">
        <ele>77.476</ele>
        <time>2009-09-26T13:01:37Z</time>
      </trkpt>
      <trkpt lat="47.99084" lon="0.12779">
        <ele>79.258</ele>
        <time>2009-09-26T13:01:46Z</time>
      </trkpt>
      <trkpt lat="47.99104" lon="0.12756">
        <ele>81.798</ele>
        <time>2009-09-26T13:01:54Z</time>
      </trkpt>
      <trkpt lat="47.99117" lon="0.12739">
        <ele>83.998</ele>
        <time>2009-09-26T13:02:00Z</time>
      </trkpt>
      <trkpt lat="47.99133" lon="0.12723">
        <ele>86.919</ele>
        <time>2009-09-26T13:02:06Z</time>
      </trkpt>
      <trkpt lat="47.99141" lon="0.12709">
        <ele>87.908</ele>
        <time>2009-09-26T13:02:11Z</time>
      </trkpt>
      <trkpt lat="47.99153" lon="0.12694">
        <ele>89.268</ele>
        <time>2009-09-26T13:02:17Z</time>
      </trkpt>
      <trkpt lat="47.99161" lon="0.12682">
        <ele>90.078</ele>
        <time>2009-09-26T13:02:21Z</time>
      </trkpt>
      <trkpt lat="47.99175" lon="0.12665">
        <ele>87.637</ele>
        <time>2009-09-26T13:02:27Z</time>
      </trkpt>
      <trkpt lat="47.99188" lon="0.12648">
        <ele>86.986</ele>
        <time>2009-09-26T13:02:32Z</time>
      </trkpt>
      <trkpt lat="47.99205" lon="0.12625">
        <ele>89.377</ele>
        <time>2009-09-26T13:02:38Z</time>
      </trkpt>
      <trkpt lat="47.99224" lon="0.12595">
        <ele>91.298</ele>
        <time>2009-09-26T13:02:46Z</time>
      </trkpt>
      <trkpt lat="47.99246" lon="0.12573">
        <ele>92.707</ele>
        <time>2009-09-26T13:02:53Z</time>
      </trkpt>
      <trkpt lat="47.99268" lon="0.12559">
        <ele>93.727</ele>
        <time>2009-09-26T13:02:59Z</time>
      </trkpt>
      <trkpt lat="47.99298" lon="0.12538">
        <ele>91.515</ele>
        <time>2009-09-26T13:03:06Z</time>
      </trkpt>
      <trkpt lat="47.99341" lon="0.12514">
        <ele>91.252</ele>
        <time>2009-09-26T13:03:13Z</time>
      </trkpt>
      <trkpt lat="47.99379" lon="0.1249">
        <ele>90.283</ele>
        <time>2009-09-26T13:03:19Z</time>
      </trkpt>
      <trkpt lat="47.99428" lon="0.1246">
        <ele>89.819</ele>
        <time>2009-09-26T13:03:27Z</time>
      </trkpt>
      <trkpt lat="47.99482" lon="0.12426">
        <ele>88.046</ele>
        <time>2009-09-26T13:03:36Z</time>
      </trkpt>
      <trkpt lat="47.99544" lon="0.12384">
        <ele>86.386</ele>
        <time>2009-09-26T13:03:46Z</time>
      </trkpt>
      <trkpt lat="47.99592" lon="0.12349">
        <ele>85.397</ele>
        <time>2009-09-26T13:03:54Z</time>
      </trkpt>
      <trkpt lat="47.9963" lon="0.12309">
        <ele>84.937</ele>
        <time>2009-09-26T13:04:01Z</time>
      </trkpt>
      <trkpt lat="47.99663" lon="0.12255">
        <ele>84.257</ele>
        <time>2009-09-26T13:04:08Z</time>
      </trkpt>
      <trkpt lat="47.9971" lon="0.12176">
        <ele>82.878</ele>
        <time>2009-09-26T13:04:18Z</time>
      </trkpt>
      <trkpt lat="47.99738" lon="0.12127">
        <ele>82.238</ele>
        <time>2009-09-26T13:04:25Z</time>
      </trkpt>
      <trkpt lat="47.99742" lon="0.12117">
        <ele>82.169</ele>
        <time>2009-09-26T13:04:28Z</time>
      </trkpt>
      <trkpt lat="47.99743" lon="0.12113">
        <ele>82.159</ele>
        <time>2009-09-26T13:04:29Z</time>
      </trkpt>
      <trkpt lat="47.99729" lon="0.12092">
        <ele>82.098</ele>
        <time>2009-09-26T13:04:34Z</time>
      </trkpt>
      <trkpt lat="47.99701" lon="0.1205">
        <ele>81.669</ele>
        <time>2009-09-26T13:04:41Z</time>
      </trkpt>
      <trkpt lat="47.99684" lon="0.12041">
        <ele>81.548</ele>
        <time>2009-09-26T13:04:45Z</time>
      </trkpt>
      <trkpt lat="47.99653" lon="0.12048">
        <ele>81.669</ele>
        <time>2009-09-26T13:04:51Z</time>
      </trkpt>
      <trkpt lat="47.99635" lon="0.12045">
        <ele>81.458</ele>
        <time>2009-09-26T13:04:54Z</time>
      </trkpt>
      <trkpt lat="47.99619" lon="0.12023">
        <ele>80.806</ele>
        <time>2009-09-26T13:04:58Z</time>
      </trkpt>
      <trkpt lat="47.99615" lon="0.12007">
        <ele>81.318</ele>
        <time>2009-09-26T13:05:00Z</time>
      </trkpt>
      <trkpt lat="47.99597" lon="0.11955">
        <ele>82.88</ele>
        <time>2009-09-26T13:05:07Z</time>
      </trkpt>
      <trkpt lat="47.99588" lon="0.11916">
        <ele>83.63</ele>
        <time>2009-09-26T13:05:12Z</time>
      </trkpt>
      <trkpt lat="47.99583" lon="0.11891">
        <ele>84.019</ele>
        <time>2009-09-26T13:05:16Z</time>
      </trkpt>
      <trkpt lat="47.99578" lon="0.11849">
        <ele>82.026</ele>
        <time>2009-09-26T13:05:22Z</time>
      </trkpt>
      <trkpt lat="47.99566" lon="0.11809">
        <ele>82.819</ele>
        <time>2009-09-26T13:05:28Z</time>
      </trkpt>
      <trkpt lat="47.99553" lon="0.11805">
        <ele>82.598</ele>
        <time>2009-09-26T13:05:31Z</time>
      </trkpt>
      <trkpt lat="47.99549" lon="0.11805">
        <ele>82.408</ele>
        <time>2009-09-26T13:05:34Z</time>
      </trkpt>
      <trkpt lat="47.99546" lon="0.11806">
        <ele>83.899</ele>
        <time>2009-09-26T13:05:42Z</time>
      </trkpt>
      <trkpt lat="47.99542" lon="0.11808">
        <ele>84.839</ele>
        <time>2009-09-26T13:05:47Z</time>
      </trkpt>
      <trkpt lat="47.99533" lon="0.11811">
        <ele>85.829</ele>
        <time>2009-09-26T13:05:51Z</time>
      </trkpt>
      <trkpt lat="47.99516" lon="0.11814">
        <ele>84.242</ele>
        <time>2009-09-26T13:05:59Z</time>
      </trkpt>
      <trkpt lat="47.99497" lon="0.11813">
        <ele>83.313</ele>
        <time>2009-09-26T13:06:06Z</time>
      </trkpt>
      <trkpt lat="47.99479" lon="0.11814">
        <ele>81.993</ele>
        <time>2009-09-26T13:06:13Z</time>
      </trkpt>
      <trkpt lat="47.99475" lon="0.11814">
        <ele>81.793</ele>
        <time>2009-09-26T13:06:15Z</time>
      </trkpt>
      <trkpt lat="47.99453" lon="0.11809">
        <ele>81.895</ele>
        <time>2009-09-26T13:06:22Z</time>
      </trkpt>
      <trkpt lat="47.99428" lon="0.11807">
        <ele>81.893</ele>
        <time>2009-09-26T13:06:28Z</time>
      </trkpt>
      <trkpt lat="47.99407" lon="0.11801">
        <ele>84.385</ele>
        <time>2009-09-26T13:06:34Z</time>
      </trkpt>
      <trkpt lat="47.99399" lon="0.11798">
        <ele>84.646</ele>
        <time>2009-09-26T13:06:36Z</time>
      </trkpt>
      <trkpt lat="47.99384" lon="0.11795">
        <ele>82.513</ele>
        <time>2009-09-26T13:06:39Z</time>
      </trkpt>
      <trkpt lat="47.99351" lon="0.11793">
        <ele>79.892</ele>
        <time>2009-09-26T13:06:45Z</time>
      </trkpt>
      <trkpt lat="47.9931" lon="0.1179">
        <ele>79.354</ele>
        <time>2009-09-26T13:06:50Z</time>
      </trkpt>
      <trkpt lat="47.99266" lon="0.11786">
        <ele>79.486</ele>
        <time>2009-09-26T13:06:56Z</time>
      </trkpt>
      <trkpt lat="47.99231" lon="0.11781">
        <ele>79.356</ele>
        <time>2009-09-26T13:07:01Z</time>
      </trkpt>
      <trkpt lat="47.99206" lon="0.11763">
        <ele>79.086</ele>
        <time>2009-09-26T13:07:05Z</time>
      </trkpt>
      <trkpt lat="47.99198" lon="0.11734">
        <ele>79.417</ele>
        <time>2009-09-26T13:07:08Z</time>
      </trkpt>
      <trkpt lat="47.99192" lon="0.11695">
        <ele>79.465</ele>
        <time>2009-09-26T13:07:12Z</time>
      </trkpt>
      <trkpt lat="47.99174" lon="0.11675">
        <ele>78.975</ele>
        <time>2009-09-26T13:07:15Z</time>
      </trkpt>
      <trkpt lat="47.9915" lon="0.11672">
        <ele>78.345</ele>
        <time>2009-09-26T13:07:18Z</time>
      </trkpt>
      <trkpt lat="47.99133" lon="0.11673">
        <ele>77.333</ele>
        <time>2009-09-26T13:07:20Z</time>
      </trkpt>
      <trkpt lat="47.99094" lon="0.11658">
        <ele>76.823</ele>
        <time>2009-09-26T13:07:25Z</time>
      </trkpt>
      <trkpt lat="47.99051" lon="0.11636">
        <ele>77.105</ele>
        <time>2009-09-26T13:07:31Z</time>
      </trkpt>
      <trkpt lat="47.99043" lon="0.11631">
        <ele>77.205</ele>
        <time>2009-09-26T13:07:33Z</time>
      </trkpt>
      <trkpt lat="47.99044" lon="0.11613">
        <ele>77.436</ele>
        <time>2009-09-26T13:07:37Z</time>
      </trkpt>
      <trkpt lat="47.99053" lon="0.11572">
        <ele>77.907</ele>
        <time>2009-09-26T13:07:43Z</time>
      </trkpt>
      <trkpt lat="47.99053" lon="0.11517">
        <ele>78.137</ele>
        <time>2009-09-26T13:07:50Z</time>
      </trkpt>
      <trkpt lat="47.9904" lon="0.11467">
        <ele>79.287</ele>
        <time>2009-09-26T13:07:57Z</time>
      </trkpt>
      <trkpt lat="47.99022" lon="0.114">
        <ele>80.337</ele>
        <time>2009-09-26T13:08:06Z</time>
      </trkpt>
      <trkpt lat="47.99013" lon="0.11356">
        <ele>81.957</ele>
        <time>2009-09-26T13:08:12Z</time>
      </trkpt>
      <trkpt lat="47.99005" lon="0.11318">
        <ele>82.806</ele>
        <time>2009-09-26T13:08:18Z</time>
      </trkpt>
      <trkpt lat="47.98986" lon="0.11317">
        <ele>81.632</ele>
        <time>2009-09-26T13:08:22Z</time>
      </trkpt>
      <trkpt lat="47.98961" lon="0.11331">
        <ele>79.692</ele>
        <time>2009-09-26T13:08:26Z</time>
      </trkpt>
      <trkpt lat="47.98935" lon="0.11327">
        <ele>77.892</ele>
        <time>2009-09-26T13:08:30Z</time>
      </trkpt>
      <trkpt lat="47.98927" lon="0.11328">
        <ele>77.092</ele>
        <time>2009-09-26T13:08:32Z</time>
      </trkpt>
      <trkpt lat="47.98926" lon="0.11327">
        <ele>76.504</ele>
        <time>2009-09-26T13:08:35Z</time>
      </trkpt>
      <trkpt lat="47.98927" lon="0.11327">
        <ele>76.445</ele>
        <time>2009-09-26T13:08:38Z</time>
      </trkpt>
      <trkpt lat="47.98936" lon="0.11326">
        <ele>78.298</ele>
        <time>2009-09-26T13:08:44Z</time>
      </trkpt>
      <trkpt lat="47.9894" lon="0.11326">
        <ele>78.777</ele>
        <time>2009-09-26T13:08:46Z</time>
      </trkpt>
      <trkpt lat="47.98939" lon="0.11313">
        <ele>77.885</ele>
        <time>2009-09-26T13:08:51Z</time>
      </trkpt>
      <trkpt lat="47.98937" lon="0.11302">
        <ele>77.755</ele>
        <time>2009-09-26T13:08:53Z</time>
      </trkpt>
      <trkpt lat="47.98931" lon="0.1128">
        <ele>77.104</ele>
        <time>2009-09-26T13:08:56Z</time>
      </trkpt>
      <trkpt lat="47.98928" lon="0.11236">
        <ele>75.504</ele>
        <time>2009-09-26T13:09:01Z</time>
      </trkpt>
      <trkpt lat="47.9893" lon="0.11229">
        <ele>75.525</ele>
        <time>2009-09-26T13:09:02Z</time>
      </trkpt>
      <trkpt lat="47.98927" lon="0.11206">
        <ele>75.434</ele>
        <time>2009-09-26T13:09:08Z</time>
      </trkpt>
      <trkpt lat="47.98919" lon="0.11204">
        <ele>74.303</ele>
        <time>2009-09-26T13:09:10Z</time>
      </trkpt>
      <trkpt lat="47.98881" lon="0.11207">
        <ele>72.032</ele>
        <time>2009-09-26T13:09:16Z</time>
      </trkpt>
      <trkpt lat="47.98815" lon="0.11213">
        <ele>69.971</ele>
        <time>2009-09-26T13:09:25Z</time>
      </trkpt>
      <trkpt lat="47.98755" lon="0.11216">
        <ele>68.253</ele>
        <time>2009-09-26T13:09:32Z</time>
      </trkpt>
      <trkpt lat="47.98715" lon="0.11208">
        <ele>68.066</ele>
        <time>2009-09-26T13:09:37Z</time>
      </trkpt>
      <trkpt lat="47.98675" lon="0.11198">
        <ele>68.928</ele>
        <time>2009-09-26T13:09:43Z</time>
      </trkpt>
      <trkpt lat="47.98645" lon="0.1119">
        <ele>69.837</ele>
        <time>2009-09-26T13:09:49Z</time>
      </trkpt>
      <trkpt lat="47.98599" lon="0.11179">
        <ele>70.897</ele>
        <time>2009-09-26T13:09:59Z</time>
      </trkpt>
      <trkpt lat="47.98562" lon="0.1117">
        <ele>70.975</ele>
        <time>2009-09-26T13:10:06Z</time>
      </trkpt>
      <trkpt lat="47.98551" lon="0.11168">
        <ele>70.895</ele>
        <time>2009-09-26T13:10:08Z</time>
      </trkpt>
      <trkpt lat="47.98529" lon="0.11173">
        <ele>70.133</ele>
        <time>2009-09-26T13:10:12Z</time>
      </trkpt>
      <trkpt lat="47.98519" lon="0.11178">
        <ele>69.49</ele>
        <time>2009-09-26T13:10:14Z</time>
      </trkpt>
      <trkpt lat="47.985" lon="0.11175">
        <ele>69.193</ele>
        <time>2009-09-26T13:10:18Z</time>
      </trkpt>
      <trkpt lat="47.98474" lon="0.11157">
        <ele>69.984</ele>
        <time>2009-09-26T13:10:26Z</time>
      </trkpt>
      <trkpt lat="47.98457" lon="0.11148">
        <ele>70.153</ele>
        <time>2009-09-26T13:10:30Z</time>
      </trkpt>
      <trkpt lat="47.98434" lon="0.11125">
        <ele>70.593</ele>
        <time>2009-09-26T13:10:36Z</time>
      </trkpt>
      <trkpt lat="47.98405" lon="0.11089">
        <ele>71.534</ele>
        <time>2009-09-26T13:10:44Z</time>
      </trkpt>
      <trkpt lat="47.98401" lon="0.11085">
        <ele>71.734</ele>
        <time>2009-09-26T13:10:45Z</time>
      </trkpt>
      <trkpt lat="47.98386" lon="0.11053">
        <ele>73.655</ele>
        <time>2009-09-26T13:10:52Z</time>
      </trkpt>
      <trkpt lat="47.98372" lon="0.11032">
        <ele>74.194</ele>
        <time>2009-09-26T13:10:57Z</time>
      </trkpt>
      <trkpt lat="47.98368" lon="0.11029">
        <ele>73.973</ele>
        <time>2009-09-26T13:10:58Z</time>
      </trkpt>
      <trkpt lat="47.98335" lon="0.11016">
        <ele>73.151</ele>
        <time>2009-09-26T13:11:05Z</time>
      </trkpt>
      <trkpt lat="47.98318" lon="0.11012">
        <ele>72.05</ele>
        <time>2009-09-26T13:11:08Z</time>
      </trkpt>
      <trkpt lat="47.98282" lon="0.10997">
        <ele>70.59</ele>
        <time>2009-09-26T13:11:14Z</time>
      </trkpt>
      <trkpt lat="47.98269" lon="0.10993">
        <ele>70.119</ele>
        <time>2009-09-26T13:11:16Z</time>
      </trkpt>
      <trkpt lat="47.98218" lon="0.10963">
        <ele>67.978</ele>
        <time>2009-09-26T13:11:24Z</time>
      </trkpt>
      <trkpt lat="47.98181" lon="0.10944">
        <ele>65.568</ele>
        <time>2009-09-26T13:11:29Z</time>
      </trkpt>
      <trkpt lat="47.98153" lon="0.1093">
        <ele>64.317</ele>
        <time>2009-09-26T13:11:32Z</time>
      </trkpt>
      <trkpt lat="47.98148" lon="0.10908">
        <ele>62.269</ele>
        <time>2009-09-26T13:11:35Z</time>
      </trkpt>
      <trkpt lat="47.9815" lon="0.10883">
        <ele>61.958</ele>
        <time>2009-09-26T13:11:38Z</time>
      </trkpt>
      <trkpt lat="47.98149" lon="0.10878">
        <ele>66.753</ele>
        <time>2009-09-26T13:11:42Z</time>
      </trkpt>
      <trkpt lat="47.98152" lon="0.1087">
        <ele>72.294</ele>
        <time>2009-09-26T13:11:54Z</time>
      </trkpt>
      <trkpt lat="47.98152" lon="0.10867">
        <ele>74.835</ele>
        <time>2009-09-26T13:11:57Z</time>
      </trkpt>
      <trkpt lat="47.98155" lon="0.10851">
        <ele>74.403</ele>
        <time>2009-09-26T13:12:04Z</time>
      </trkpt>
      <trkpt lat="47.98155" lon="0.10848">
        <ele>74.133</ele>
        <time>2009-09-26T13:12:05Z</time>
      </trkpt>
      <trkpt lat="47.98156" lon="0.10822">
        <ele>74.184</ele>
        <time>2009-09-26T13:12:12Z</time>
      </trkpt>
      <trkpt lat="47.98157" lon="0.10797">
        <ele>74.553</ele>
        <time>2009-09-26T13:12:16Z</time>
      </trkpt>
      <trkpt lat="47.98161" lon="0.10768">
        <ele>73.372</ele>
        <time>2009-09-26T13:12:20Z</time>
      </trkpt>
      <trkpt lat="47.98167" lon="0.10718">
        <ele>69.067</ele>
        <time>2009-09-26T13:12:25Z</time>
      </trkpt>
      <trkpt lat="47.9818" lon="0.10657">
        <ele>65.247</ele>
        <time>2009-09-26T13:12:31Z</time>
      </trkpt>
      <trkpt lat="47.98171" lon="0.1062">
        <ele>65.408</ele>
        <time>2009-09-26T13:12:35Z</time>
      </trkpt>
      <trkpt lat="47.98168" lon="0.10581">
        <ele>66.81</ele>
        <time>2009-09-26T13:12:39Z</time>
      </trkpt>
      <trkpt lat="47.98171" lon="0.10532">
        <ele>65.151</ele>
        <time>2009-09-26T13:12:44Z</time>
      </trkpt>
      <trkpt lat="47.98173" lon="0.1046">
        <ele>66.192</ele>
        <time>2009-09-26T13:12:52Z</time>
      </trkpt>
      <trkpt lat="47.98172" lon="0.10409">
        <ele>67.293</ele>
        <time>2009-09-26T13:12:58Z</time>
      </trkpt>
      <trkpt lat="47.98171" lon="0.10392">
        <ele>67.083</ele>
        <time>2009-09-26T13:13:00Z</time>
      </trkpt>
      <trkpt lat="47.98167" lon="0.10365">
        <ele>66.901</ele>
        <time>2009-09-26T13:13:05Z</time>
      </trkpt>
      <trkpt lat="47.9817" lon="0.10359">
        <ele>67.122</ele>
        <time>2009-09-26T13:13:07Z</time>
      </trkpt>
      <trkpt lat="47.98172" lon="0.10339">
        <ele>68.363</ele>
        <time>2009-09-26T13:13:14Z</time>
      </trkpt>
      <trkpt lat="47.98171" lon="0.10338">
        <ele>68.421</ele>
        <time>2009-09-26T13:13:22Z</time>
      </trkpt>
      <trkpt lat="47.98172" lon="0.10339">
        <ele>68.261</ele>
        <time>2009-09-26T13:13:34Z</time>
      </trkpt>
      <trkpt lat="47.98172" lon="0.10339">
        <ele>68.431</ele>
        <time>2009-09-26T13:13:35Z</time>
      </trkpt>
      <trkpt lat="47.98171" lon="0.10352">
        <ele>67.99</ele>
        <time>2009-09-26T13:13:40Z</time>
      </trkpt>
      <trkpt lat="47.98167" lon="0.10375">
        <ele>66.931</ele>
        <time>2009-09-26T13:13:45Z</time>
      </trkpt>
      <trkpt lat="47.98149" lon="0.1039">
        <ele>65.7</ele>
        <time>2009-09-26T13:13:51Z</time>
      </trkpt>
      <trkpt lat="47.98129" lon="0.10405">
        <ele>64.901</ele>
        <time>2009-09-26T13:13:56Z</time>
      </trkpt>
      <trkpt lat="47.98088" lon="0.10438">
        <ele>65.523</ele>
        <time>2009-09-26T13:14:07Z</time>
      </trkpt>
      <trkpt lat="47.98073" lon="0.1045">
        <ele>66.192</ele>
        <time>2009-09-26T13:14:13Z</time>
      </trkpt>
      <trkpt lat="47.98054" lon="0.10465">
        <ele>66.081</ele>
        <time>2009-09-26T13:14:19Z</time>
      </trkpt>
      <trkpt lat="47.9803" lon="0.10475">
        <ele>66.091</ele>
        <time>2009-09-26T13:14:25Z</time>
      </trkpt>
      <trkpt lat="47.97999" lon="0.10494">
        <ele>64.388</ele>
        <time>2009-09-26T13:14:32Z</time>
      </trkpt>
      <trkpt lat="47.97985" lon="0.10507">
        <ele>63.358</ele>
        <time>2009-09-26T13:14:35Z</time>
      </trkpt>
      <trkpt lat="47.97952" lon="0.10532">
        <ele>61.629</ele>
        <time>2009-09-26T13:14:41Z</time>
      </trkpt>
      <trkpt lat="47.97928" lon="0.10535">
        <ele>61.551</ele>
        <time>2009-09-26T13:14:45Z</time>
      </trkpt>
      <trkpt lat="47.97923" lon="0.10533">
        <ele>61.681</ele>
        <time>2009-09-26T13:14:46Z</time>
      </trkpt>
      <trkpt lat="47.9789" lon="0.10516">
        <ele>62.612</ele>
        <time>2009-09-26T13:14:53Z</time>
      </trkpt>
      <trkpt lat="47.97855" lon="0.10498">
        <ele>63.461</ele>
        <time>2009-09-26T13:15:01Z</time>
      </trkpt>
      <trkpt lat="47.97834" lon="0.10498">
        <ele>63.621</ele>
        <time>2009-09-26T13:15:06Z</time>
      </trkpt>
      <trkpt lat="47.97798" lon="0.10511">
        <ele>63.691</ele>
        <time>2009-09-26T13:15:14Z</time>
      </trkpt>
      <trkpt lat="47.97758" lon="0.10514">
        <ele>61.908</ele>
        <time>2009-09-26T13:15:21Z</time>
      </trkpt>
      <trkpt lat="47.97751" lon="0.10514">
        <ele>61.558</ele>
        <time>2009-09-26T13:15:22Z</time>
      </trkpt>
      <trkpt lat="47.97738" lon="0.10513">
        <ele>60.817</ele>
        <time>2009-09-26T13:15:24Z</time>
      </trkpt>
      <trkpt lat="47.97715" lon="0.10508">
        <ele>60.449</ele>
        <time>2009-09-26T13:15:28Z</time>
      </trkpt>
      <trkpt lat="47.97682" lon="0.10499">
        <ele>61.951</ele>
        <time>2009-09-26T13:15:35Z</time>
      </trkpt>
      <trkpt lat="47.97668" lon="0.10495">
        <ele>63.801</ele>
        <time>2009-09-26T13:15:40Z</time>
      </trkpt>
      <trkpt lat="47.97647" lon="0.10494">
        <ele>66.382</ele>
        <time>2009-09-26T13:15:47Z</time>
      </trkpt>
      <trkpt lat="47.9763" lon="0.10499">
        <ele>66.46</ele>
        <time>2009-09-26T13:15:53Z</time>
      </trkpt>
      <trkpt lat="47.97607" lon="0.10518">
        <ele>66.499</ele>
        <time>2009-09-26T13:16:00Z</time>
      </trkpt>
      <trkpt lat="47.97589" lon="0.10519">
        <ele>66.51</ele>
        <time>2009-09-26T13:16:04Z</time>
      </trkpt>
      <trkpt lat="47.97581" lon="0.10514">
        <ele>66.64</ele>
        <time>2009-09-26T13:16:06Z</time>
      </trkpt>
      <trkpt lat="47.97562" lon="0.1049">
        <ele>68.06</ele>
        <time>2009-09-26T13:16:12Z</time>
      </trkpt>
      <trkpt lat="47.97542" lon="0.10442">
        <ele>70.5</ele>
        <time>2009-09-26T13:16:21Z</time>
      </trkpt>
      <trkpt lat="47.97525" lon="0.10396">
        <ele>72.099</ele>
        <time>2009-09-26T13:16:29Z</time>
      </trkpt>
      <trkpt lat="47.97513" lon="0.10369">
        <ele>71.877</ele>
        <time>2009-09-26T13:16:35Z</time>
      </trkpt>
      <trkpt lat="47.97502" lon="0.1037">
        <ele>71.236</ele>
        <time>2009-09-26T13:16:39Z</time>
      </trkpt>
      <trkpt lat="47.97498" lon="0.10373">
        <ele>70.996</ele>
        <time>2009-09-26T13:16:40Z</time>
      </trkpt>
      <trkpt lat="47.97471" lon="0.10399">
        <ele>68.314</ele>
        <time>2009-09-26T13:16:46Z</time>
      </trkpt>
      <trkpt lat="47.97446" lon="0.10421">
        <ele>66.325</ele>
        <time>2009-09-26T13:16:51Z</time>
      </trkpt>
      <trkpt lat="47.97437" lon="0.10421">
        <ele>65.716</ele>
        <time>2009-09-26T13:16:55Z</time>
      </trkpt>
      <trkpt lat="47.97422" lon="0.10385">
        <ele>66.628</ele>
        <time>2009-09-26T13:17:02Z</time>
      </trkpt>
      <trkpt lat="47.97398" lon="0.10323">
        <ele>68.609</ele>
        <time>2009-09-26T13:17:11Z</time>
      </trkpt>
      <trkpt lat="47.97386" lon="0.10286">
        <ele>69.219</ele>
        <time>2009-09-26T13:17:17Z</time>
      </trkpt>
      <trkpt lat="47.97367" lon="0.10234">
        <ele>69.387</ele>
        <time>2009-09-26T13:17:26Z</time>
      </trkpt>
      <trkpt lat="47.97364" lon="0.10228">
        <ele>69.668</ele>
        <time>2009-09-26T13:17:27Z</time>
      </trkpt>
      <trkpt lat="47.97344" lon="0.10169">
        <ele>70.659</ele>
        <time>2009-09-26T13:17:37Z</time>
      </trkpt>
      <trkpt lat="47.97322" lon="0.10112">
        <ele>72.348</ele>
        <time>2009-09-26T13:17:47Z</time>
      </trkpt>
      <trkpt lat="47.97307" lon="0.10076">
        <ele>74.289</ele>
        <time>2009-09-26T13:17:54Z</time>
      </trkpt>
      <trkpt lat="47.97294" lon="0.10038">
        <ele>76.249</ele>
        <time>2009-09-26T13:18:02Z</time>
      </trkpt>
      <trkpt lat="47.97285" lon="0.1001">
        <ele>78.659</ele>
        <time>2009-09-26T13:18:09Z</time>
      </trkpt>
      <trkpt lat="47.97274" lon="0.09978">
        <ele>82.159</ele>
        <time>2009-09-26T13:18:17Z</time>
      </trkpt>
      <trkpt lat="47.97264" lon="0.09959">
        <ele>81.816</ele>
        <time>2009-09-26T13:18:22Z</time>
      </trkpt>
      <trkpt lat="47.97255" lon="0.09937">
        <ele>81.638</ele>
        <time>2009-09-26T13:18:28Z</time>
      </trkpt>
      <trkpt lat="47.97236" lon="0.09913">
        <ele>83.688</ele>
        <time>2009-09-26T13:18:35Z</time>
      </trkpt>
      <trkpt lat="47.97211" lon="0.09883">
        <ele>84.127</ele>
        <time>2009-09-26T13:18:43Z</time>
      </trkpt>
      <trkpt lat="47.97183" lon="0.09849">
        <ele>83.877</ele>
        <time>2009-09-26T13:18:51Z</time>
      </trkpt>
      <trkpt lat="47.97145" lon="0.09804">
        <ele>82.707</ele>
        <time>2009-09-26T13:19:01Z</time>
      </trkpt>
      <trkpt lat="47.97112" lon="0.09763">
        <ele>82.567</ele>
        <time>2009-09-26T13:19:09Z</time>
      </trkpt>
      <trkpt lat="47.97079" lon="0.09714">
        <ele>82.866</ele>
        <time>2009-09-26T13:19:17Z</time>
      </trkpt>
      <trkpt lat="47.97052" lon="0.09668">
        <ele>82.235</ele>
        <time>2009-09-26T13:19:24Z</time>
      </trkpt>
      <trkpt lat="47.97026" lon="0.09628">
        <ele>82.025</ele>
        <time>2009-09-26T13:19:31Z</time>
      </trkpt>
      <trkpt lat="47.97026" lon="0.0961">
        <ele>82.677</ele>
        <time>2009-09-26T13:19:36Z</time>
      </trkpt>
      <trkpt lat="47.9704" lon="0.09579">
        <ele>83.046</ele>
        <time>2009-09-26T13:19:43Z</time>
      </trkpt>
      <trkpt lat="47.97047" lon="0.09559">
        <ele>83.076</ele>
        <time>2009-09-26T13:19:47Z</time>
      </trkpt>
      <trkpt lat="47.97053" lon="0.0951">
        <ele>82.116</ele>
        <time>2009-09-26T13:19:54Z</time>
      </trkpt>
      <trkpt lat="47.97067" lon="0.09479">
        <ele>80.642</ele>
        <time>2009-09-26T13:19:59Z</time>
      </trkpt>
      <trkpt lat="47.97082" lon="0.0944">
        <ele>78.273</ele>
        <time>2009-09-26T13:20:04Z</time>
      </trkpt>
      <trkpt lat="47.97092" lon="0.09419">
        <ele>75.821</ele>
        <time>2009-09-26T13:20:08Z</time>
      </trkpt>
      <trkpt lat="47.97094" lon="0.09413">
        <ele>73.669</ele>
        <time>2009-09-26T13:20:10Z</time>
      </trkpt>
      <trkpt lat="47.97097" lon="0.09395">
        <ele>67.247</ele>
        <time>2009-09-26T13:20:16Z</time>
      </trkpt>
      <trkpt lat="47.97097" lon="0.09372">
        <ele>66.38</ele>
        <time>2009-09-26T13:20:21Z</time>
      </trkpt>
      <trkpt lat="47.97099" lon="0.09367">
        <ele>66.701</ele>
        <time>2009-09-26T13:20:22Z</time>
      </trkpt>
      <trkpt lat="47.97105" lon="0.09324">
        <ele>61.667</ele>
        <time>2009-09-26T13:20:27Z</time>
      </trkpt>
      <trkpt lat="47.97107" lon="0.09299">
        <ele>58.437</ele>
        <time>2009-09-26T13:20:30Z</time>
      </trkpt>
      <trkpt lat="47.97113" lon="0.09261">
        <ele>50.662</ele>
        <time>2009-09-26T13:20:34Z</time>
      </trkpt>
      <trkpt lat="47.97119" lon="0.09235">
        <ele>45.253</ele>
        <time>2009-09-26T13:20:38Z</time>
      </trkpt>
      <trkpt lat="47.97122" lon="0.09232">
        <ele>45.595</ele>
        <time>2009-09-26T13:20:39Z</time>
      </trkpt>
      <trkpt lat="47.97135" lon="0.09227">
        <ele>47.611</ele>
        <time>2009-09-26T13:20:43Z</time>
      </trkpt>
      <trkpt lat="47.97156" lon="0.09222">
        <ele>53.337</ele>
        <time>2009-09-26T13:20:49Z</time>
      </trkpt>
      <trkpt lat="47.9716" lon="0.09197">
        <ele>53.386</ele>
        <time>2009-09-26T13:20:53Z</time>
      </trkpt>
      <trkpt lat="47.9716" lon="0.09148">
        <ele>52.274</ele>
        <time>2009-09-26T13:20:58Z</time>
      </trkpt>
      <trkpt lat="47.9716" lon="0.09074">
        <ele>51.288</ele>
        <time>2009-09-26T13:21:04Z</time>
      </trkpt>
      <trkpt lat="47.97163" lon="0.08963">
        <ele>49.075</ele>
        <time>2009-09-26T13:21:12Z</time>
      </trkpt>
      <trkpt lat="47.97166" lon="0.08881">
        <ele>49.667</ele>
        <time>2009-09-26T13:21:19Z</time>
      </trkpt>
      <trkpt lat="47.97167" lon="0.08825">
        <ele>51.228</ele>
        <time>2009-09-26T13:21:25Z</time>
      </trkpt>
      <trkpt lat="47.97175" lon="0.08765">
        <ele>54.04</ele>
        <time>2009-09-26T13:21:33Z</time>
      </trkpt>
      <trkpt lat="47.97183" lon="0.08729">
        <ele>56.039</ele>
        <time>2009-09-26T13:21:39Z</time>
      </trkpt>
      <trkpt lat="47.97194" lon="0.08689">
        <ele>58.099</ele>
        <time>2009-09-26T13:21:46Z</time>
      </trkpt>
      <trkpt lat="47.97202" lon="0.08646">
        <ele>59.639</ele>
        <time>2009-09-26T13:21:53Z</time>
      </trkpt>
      <trkpt lat="47.97204" lon="0.08574">
        <ele>61.448</ele>
        <time>2009-09-26T13:22:05Z</time>
      </trkpt>
      <trkpt lat="47.97204" lon="0.08511">
        <ele>62.287</ele>
        <time>2009-09-26T13:22:15Z</time>
      </trkpt>
      <trkpt lat="47.97205" lon="0.0849">
        <ele>62.337</ele>
        <time>2009-09-26T13:22:18Z</time>
      </trkpt>
      <trkpt lat="47.97214" lon="0.08436">
        <ele>62.567</ele>
        <time>2009-09-26T13:22:26Z</time>
      </trkpt>
      <trkpt lat="47.97236" lon="0.08376">
        <ele>61.327</ele>
        <time>2009-09-26T13:22:35Z</time>
      </trkpt>
      <trkpt lat="47.97264" lon="0.08303">
        <ele>61.276</ele>
        <time>2009-09-26T13:22:45Z</time>
      </trkpt>
      <trkpt lat="47.97286" lon="0.08248">
        <ele>62.02</ele>
        <time>2009-09-26T13:22:53Z</time>
      </trkpt>
      <trkpt lat="47.97308" lon="0.08194">
        <ele>63.138</ele>
        <time>2009-09-26T13:23:01Z</time>
      </trkpt>
      <trkpt lat="47.97313" lon="0.08182">
        <ele>63.539</ele>
        <time>2009-09-26T13:23:03Z</time>
      </trkpt>
      <trkpt lat="47.97321" lon="0.08158">
        <ele>64.288</ele>
        <time>2009-09-26T13:23:07Z</time>
      </trkpt>
      <trkpt lat="47.97332" lon="0.08147">
        <ele>64.778</ele>
        <time>2009-09-26T13:23:11Z</time>
      </trkpt>
      <trkpt lat="47.97342" lon="0.08146">
        <ele>65.027</ele>
        <time>2009-09-26T13:23:14Z</time>
      </trkpt>
      <trkpt lat="47.97377" lon="0.08144">
        <ele>64.697</ele>
        <time>2009-09-26T13:23:23Z</time>
      </trkpt>
      <trkpt lat="47.9741" lon="0.08145">
        <ele>64.978</ele>
        <time>2009-09-26T13:23:31Z</time>
      </trkpt>
      <trkpt lat="47.97436" lon="0.08143">
        <ele>66.458</ele>
        <time>2009-09-26T13:23:38Z</time>
      </trkpt>
      <trkpt lat="47.97461" lon="0.08141">
        <ele>67.609</ele>
        <time>2009-09-26T13:23:46Z</time>
      </trkpt>
      <trkpt lat="47.97486" lon="0.08139">
        <ele>69.278</ele>
        <time>2009-09-26T13:23:54Z</time>
      </trkpt>
      <trkpt lat="47.97509" lon="0.08139">
        <ele>70.158</ele>
        <time>2009-09-26T13:24:01Z</time>
      </trkpt>
      <trkpt lat="47.97534" lon="0.08137">
        <ele>71.172</ele>
        <time>2009-09-26T13:24:08Z</time>
      </trkpt>
      <trkpt lat="47.97558" lon="0.0813">
        <ele>71.107</ele>
        <time>2009-09-26T13:24:15Z</time>
      </trkpt>
      <trkpt lat="47.97576" lon="0.08115">
        <ele>71.948</ele>
        <time>2009-09-26T13:24:21Z</time>
      </trkpt>
      <trkpt lat="47.9758" lon="0.0811">
        <ele>71.297</ele>
        <time>2009-09-26T13:24:25Z</time>
      </trkpt>
      <trkpt lat="47.97581" lon="0.08103">
        <ele>73.969</ele>
        <time>2009-09-26T13:25:14Z</time>
      </trkpt>
      <trkpt lat="47.97584" lon="0.08087">
        <ele>73.709</ele>
        <time>2009-09-26T13:25:19Z</time>
      </trkpt>
      <trkpt lat="47.97591" lon="0.08063">
        <ele>73.099</ele>
        <time>2009-09-26T13:25:24Z</time>
      </trkpt>
      <trkpt lat="47.97607" lon="0.08022">
        <ele>73.079</ele>
        <time>2009-09-26T13:25:32Z</time>
      </trkpt>
      <trkpt lat="47.97621" lon="0.07991">
        <ele>73.169</ele>
        <time>2009-09-26T13:25:39Z</time>
      </trkpt>
      <trkpt lat="47.97633" lon="0.07956">
        <ele>72.689</ele>
        <time>2009-09-26T13:25:47Z</time>
      </trkpt>
      <trkpt lat="47.97635" lon="0.07947">
        <ele>72.729</ele>
        <time>2009-09-26T13:25:49Z</time>
      </trkpt>
      <trkpt lat="47.97643" lon="0.07944">
        <ele>74.3</ele>
        <time>2009-09-26T13:25:53Z</time>
      </trkpt>
      <trkpt lat="47.97659" lon="0.07946">
        <ele>74.738</ele>
        <time>2009-09-26T13:25:58Z</time>
      </trkpt>
      <trkpt lat="47.97667" lon="0.07947">
        <ele>74.587</ele>
        <time>2009-09-26T13:26:00Z</time>
      </trkpt>
      <trkpt lat="47.97687" lon="0.07951">
        <ele>74.117</ele>
        <time>2009-09-26T13:26:04Z</time>
      </trkpt>
      <trkpt lat="47.97703" lon="0.07943">
        <ele>73.217</ele>
        <time>2009-09-26T13:26:08Z</time>
      </trkpt>
      <trkpt lat="47.97706" lon="0.0794">
        <ele>73.117</ele>
        <time>2009-09-26T13:26:09Z</time>
      </trkpt>
      <trkpt lat="47.97708" lon="0.07933">
        <ele>72.827</ele>
        <time>2009-09-26T13:26:13Z</time>
      </trkpt>
      <trkpt lat="47.97711" lon="0.07928">
        <ele>72.257</ele>
        <time>2009-09-26T13:26:17Z</time>
      </trkpt>
      <trkpt lat="47.97725" lon="0.07914">
        <ele>72.419</ele>
        <time>2009-09-26T13:26:22Z</time>
      </trkpt>
      <trkpt lat="47.97749" lon="0.07891">
        <ele>70.395</ele>
        <time>2009-09-26T13:26:27Z</time>
      </trkpt>
      <trkpt lat="47.97782" lon="0.07861">
        <ele>68.096</ele>
        <time>2009-09-26T13:26:32Z</time>
      </trkpt>
      <trkpt lat="47.97812" lon="0.07837">
        <ele>67.377</ele>
        <time>2009-09-26T13:26:37Z</time>
      </trkpt>
      <trkpt lat="47.9782" lon="0.07834">
        <ele>67.088</ele>
        <time>2009-09-26T13:26:40Z</time>
      </trkpt>
      <trkpt lat="47.97819" lon="0.07834">
        <ele>65.237</ele>
        <time>2009-09-26T13:26:43Z</time>
      </trkpt>
      <trkpt lat="47.97822" lon="0.07833">
        <ele>66.01</ele>
        <time>2009-09-26T13:27:01Z</time>
      </trkpt>
      <trkpt lat="47.97823" lon="0.07841">
        <ele>66.559</ele>
        <time>2009-09-26T13:27:05Z</time>
      </trkpt>
      <trkpt lat="47.97826" lon="0.07861">
        <ele>66.208</ele>
        <time>2009-09-26T13:27:11Z</time>
      </trkpt>
      <trkpt lat="47.97826" lon="0.07876">
        <ele>66.358</ele>
        <time>2009-09-26T13:27:15Z</time>
      </trkpt>
      <trkpt lat="47.97826" lon="0.07877">
        <ele>66.679</ele>
        <time>2009-09-26T13:27:19Z</time>
      </trkpt>
      <trkpt lat="47.97826" lon="0.07874">
        <ele>66.099</ele>
        <time>2009-09-26T13:27:24Z</time>
      </trkpt>
      <trkpt lat="47.97826" lon="0.0787">
        <ele>65.429</ele>
        <time>2009-09-26T13:27:29Z</time>
      </trkpt>
      <trkpt lat="47.97825" lon="0.07868">
        <ele>65.699</ele>
        <time>2009-09-26T13:27:30Z</time>
      </trkpt>
      <trkpt lat="47.97824" lon="0.07853">
        <ele>65.58</ele>
        <time>2009-09-26T13:27:36Z</time>
      </trkpt>
      <trkpt lat="47.97822" lon="0.0783">
        <ele>66.87</ele>
        <time>2009-09-26T13:27:42Z</time>
      </trkpt>
      <trkpt lat="47.97824" lon="0.07807">
        <ele>67.891</ele>
        <time>2009-09-26T13:27:49Z</time>
      </trkpt>
      <trkpt lat="47.97829" lon="0.07786">
        <ele>69.521</ele>
        <time>2009-09-26T13:27:56Z</time>
      </trkpt>
      <trkpt lat="47.97834" lon="0.07765">
        <ele>70.231</ele>
        <time>2009-09-26T13:28:03Z</time>
      </trkpt>
      <trkpt lat="47.97841" lon="0.07739">
        <ele>70.991</ele>
        <time>2009-09-26T13:28:11Z</time>
      </trkpt>
      <trkpt lat="47.97846" lon="0.07702">
        <ele>71.89</ele>
        <time>2009-09-26T13:28:21Z</time>
      </trkpt>
      <trkpt lat="47.9785" lon="0.07667">
        <ele>73.211</ele>
        <time>2009-09-26T13:28:31Z</time>
      </trkpt>
      <trkpt lat="47.97854" lon="0.0764">
        <ele>72.88</ele>
        <time>2009-09-26T13:28:39Z</time>
      </trkpt>
      <trkpt lat="47.97859" lon="0.07616">
        <ele>73.411</ele>
        <time>2009-09-26T13:28:46Z</time>
      </trkpt>
      <trkpt lat="47.97869" lon="0.07588">
        <ele>75.342</ele>
        <time>2009-09-26T13:28:54Z</time>
      </trkpt>
      <trkpt lat="47.97881" lon="0.07582">
        <ele>75.853</ele>
        <time>2009-09-26T13:28:59Z</time>
      </trkpt>
      <trkpt lat="47.97891" lon="0.07584">
        <ele>78.123</ele>
        <time>2009-09-26T13:29:04Z</time>
      </trkpt>
      <trkpt lat="47.9791" lon="0.07586">
        <ele>80.362</ele>
        <time>2009-09-26T13:29:10Z</time>
      </trkpt>
      <trkpt lat="47.97933" lon="0.0758">
        <ele>80.467</ele>
        <time>2009-09-26T13:29:17Z</time>
      </trkpt>
      <trkpt lat="47.97963" lon="0.0757">
        <ele>80.89</ele>
        <time>2009-09-26T13:29:25Z</time>
      </trkpt>
      <trkpt lat="47.97968" lon="0.07568">
        <ele>80.579</ele>
        <time>2009-09-26T13:29:26Z</time>
      </trkpt>
      <trkpt lat="47.98" lon="0.07549">
        <ele>79.28</ele>
        <time>2009-09-26T13:29:33Z</time>
      </trkpt>
      <trkpt lat="47.98016" lon="0.0753">
        <ele>79.841</ele>
        <time>2009-09-26T13:29:37Z</time>
      </trkpt>
      <trkpt lat="47.98045" lon="0.07507">
        <ele>79.281</ele>
        <time>2009-09-26T13:29:44Z</time>
      </trkpt>
      <trkpt lat="47.98079" lon="0.07482">
        <ele>79.211</ele>
        <time>2009-09-26T13:29:52Z</time>
      </trkpt>
      <trkpt lat="47.98099" lon="0.07456">
        <ele>78.311</ele>
        <time>2009-09-26T13:29:57Z</time>
      </trkpt>
      <trkpt lat="47.98113" lon="0.07428">
        <ele>78.081</ele>
        <time>2009-09-26T13:30:02Z</time>
      </trkpt>
      <trkpt lat="47.9813" lon="0.07391">
        <ele>75.648</ele>
        <time>2009-09-26T13:30:08Z</time>
      </trkpt>
      <trkpt lat="47.9815" lon="0.07346">
        <ele>75.79</ele>
        <time>2009-09-26T13:30:14Z</time>
      </trkpt>
      <trkpt lat="47.98165" lon="0.07304">
        <ele>75.21</ele>
        <time>2009-09-26T13:30:20Z</time>
      </trkpt>
      <trkpt lat="47.98176" lon="0.07275">
        <ele>76.691</ele>
        <time>2009-09-26T13:30:25Z</time>
      </trkpt>
      <trkpt lat="47.98181" lon="0.07252">
        <ele>78.083</ele>
        <time>2009-09-26T13:30:30Z</time>
      </trkpt>
      <trkpt lat="47.9818" lon="0.07249">
        <ele>78.082</ele>
        <time>2009-09-26T13:30:31Z</time>
      </trkpt>
      <trkpt lat="47.98171" lon="0.07236">
        <ele>79.113</ele>
        <time>2009-09-26T13:30:35Z</time>
      </trkpt>
      <trkpt lat="47.98152" lon="0.07202">
        <ele>82.003</ele>
        <time>2009-09-26T13:30:43Z</time>
      </trkpt>
      <trkpt lat="47.98136" lon="0.07169">
        <ele>84.563</ele>
        <time>2009-09-26T13:30:51Z</time>
      </trkpt>
      <trkpt lat="47.98123" lon="0.07154">
        <ele>85.512</ele>
        <time>2009-09-26T13:30:57Z</time>
      </trkpt>
      <trkpt lat="47.98109" lon="0.07143">
        <ele>87.062</ele>
        <time>2009-09-26T13:31:02Z</time>
      </trkpt>
      <trkpt lat="47.98088" lon="0.07128">
        <ele>90.052</ele>
        <time>2009-09-26T13:31:09Z</time>
      </trkpt>
      <trkpt lat="47.98064" lon="0.07107">
        <ele>91.963</ele>
        <time>2009-09-26T13:31:17Z</time>
      </trkpt>
      <trkpt lat="47.98059" lon="0.07102">
        <ele>91.872</ele>
        <time>2009-09-26T13:31:19Z</time>
      </trkpt>
      <trkpt lat="47.98062" lon="0.07079">
        <ele>88.85</ele>
        <time>2009-09-26T13:31:23Z</time>
      </trkpt>
      <trkpt lat="47.98072" lon="0.07068">
        <ele>87.069</ele>
        <time>2009-09-26T13:31:25Z</time>
      </trkpt>
      <trkpt lat="47.98113" lon="0.07026">
        <ele>82.076</ele>
        <time>2009-09-26T13:31:31Z</time>
      </trkpt>
      <trkpt lat="47.98162" lon="0.06993">
        <ele>78.829</ele>
        <time>2009-09-26T13:31:37Z</time>
      </trkpt>
      <trkpt lat="47.98231" lon="0.06955">
        <ele>77.38</ele>
        <time>2009-09-26T13:31:45Z</time>
      </trkpt>
      <trkpt lat="47.98308" lon="0.0691">
        <ele>75.88</ele>
        <time>2009-09-26T13:31:54Z</time>
      </trkpt>
      <trkpt lat="47.98372" lon="0.06877">
        <ele>75.661</ele>
        <time>2009-09-26T13:32:02Z</time>
      </trkpt>
      <trkpt lat="47.98387" lon="0.06867">
        <ele>75.501</ele>
        <time>2009-09-26T13:32:04Z</time>
      </trkpt>
      <trkpt lat="47.98426" lon="0.06818">
        <ele>74.48</ele>
        <time>2009-09-26T13:32:11Z</time>
      </trkpt>
      <trkpt lat="47.98455" lon="0.0678">
        <ele>72.89</ele>
        <time>2009-09-26T13:32:17Z</time>
      </trkpt>
      <trkpt lat="47.98489" lon="0.0674">
        <ele>73.161</ele>
        <time>2009-09-26T13:32:24Z</time>
      </trkpt>
      <trkpt lat="47.98513" lon="0.0672">
        <ele>73.654</ele>
        <time>2009-09-26T13:32:29Z</time>
      </trkpt>
      <trkpt lat="47.98539" lon="0.06709">
        <ele>75.805</ele>
        <time>2009-09-26T13:32:35Z</time>
      </trkpt>
      <trkpt lat="47.98567" lon="0.06704">
        <ele>79.616</ele>
        <time>2009-09-26T13:32:42Z</time>
      </trkpt>
      <trkpt lat="47.98583" lon="0.067">
        <ele>81.115</ele>
        <time>2009-09-26T13:32:46Z</time>
      </trkpt>
      <trkpt lat="47.98592" lon="0.06698">
        <ele>81.795</ele>
        <time>2009-09-26T13:32:48Z</time>
      </trkpt>
      <trkpt lat="47.98605" lon="0.0671">
        <ele>82.335</ele>
        <time>2009-09-26T13:32:52Z</time>
      </trkpt>
      <trkpt lat="47.98607" lon="0.06721">
        <ele>82.354</ele>
        <time>2009-09-26T13:32:54Z</time>
      </trkpt>
      <trkpt lat="47.98622" lon="0.06782">
        <ele>82.904</ele>
        <time>2009-09-26T13:33:05Z</time>
      </trkpt>
      <trkpt lat="47.98634" lon="0.06838">
        <ele>83.584</ele>
        <time>2009-09-26T13:33:15Z</time>
      </trkpt>
      <trkpt lat="47.98649" lon="0.0688">
        <ele>84.094</ele>
        <time>2009-09-26T13:33:23Z</time>
      </trkpt>
      <trkpt lat="47.98662" lon="0.06917">
        <ele>84.094</ele>
        <time>2009-09-26T13:33:30Z</time>
      </trkpt>
      <trkpt lat="47.98672" lon="0.06967">
        <ele>83.894</ele>
        <time>2009-09-26T13:33:37Z</time>
      </trkpt>
      <trkpt lat="47.98685" lon="0.0699">
        <ele>83.934</ele>
        <time>2009-09-26T13:33:41Z</time>
      </trkpt>
      <trkpt lat="47.98695" lon="0.06994">
        <ele>84.184</ele>
        <time>2009-09-26T13:33:43Z</time>
      </trkpt>
      <trkpt lat="47.98746" lon="0.07007">
        <ele>84.854</ele>
        <time>2009-09-26T13:33:52Z</time>
      </trkpt>
      <trkpt lat="47.98757" lon="0.0701">
        <ele>85.105</ele>
        <time>2009-09-26T13:33:54Z</time>
      </trkpt>
      <trkpt lat="47.98772" lon="0.07027">
        <ele>83.543</ele>
        <time>2009-09-26T13:33:58Z</time>
      </trkpt>
      <trkpt lat="47.98771" lon="0.07036">
        <ele>83.083</ele>
        <time>2009-09-26T13:33:59Z</time>
      </trkpt>
      <trkpt lat="47.98767" lon="0.07061">
        <ele>81.573</ele>
        <time>2009-09-26T13:34:02Z</time>
      </trkpt>
      <trkpt lat="47.98761" lon="0.07127">
        <ele>79.442</ele>
        <time>2009-09-26T13:34:08Z</time>
      </trkpt>
      <trkpt lat="47.98747" lon="0.07201">
        <ele>76.801</ele>
        <time>2009-09-26T13:34:14Z</time>
      </trkpt>
      <trkpt lat="47.98725" lon="0.07289">
        <ele>73.45</ele>
        <time>2009-09-26T13:34:21Z</time>
      </trkpt>
      <trkpt lat="47.98712" lon="0.07318">
        <ele>72.171</ele>
        <time>2009-09-26T13:34:25Z</time>
      </trkpt>
      <trkpt lat="47.98709" lon="0.07322">
        <ele>72.332</ele>
        <time>2009-09-26T13:34:26Z</time>
      </trkpt>
      <trkpt lat="47.98695" lon="0.0732">
        <ele>71.412</ele>
        <time>2009-09-26T13:34:30Z</time>
      </trkpt>
      <trkpt lat="47.98691" lon="0.0732">
        <ele>70.802</ele>
        <time>2009-09-26T13:34:31Z</time>
      </trkpt>
      <trkpt lat="47.9867" lon="0.07325">
        <ele>68.741</ele>
        <time>2009-09-26T13:34:35Z</time>
      </trkpt>
      <trkpt lat="47.98646" lon="0.07328">
        <ele>66.559</ele>
        <time>2009-09-26T13:34:39Z</time>
      </trkpt>
      <trkpt lat="47.98626" lon="0.07347">
        <ele>65.059</ele>
        <time>2009-09-26T13:34:43Z</time>
      </trkpt>
      <trkpt lat="47.98613" lon="0.07397">
        <ele>64.222</ele>
        <time>2009-09-26T13:34:49Z</time>
      </trkpt>
      <trkpt lat="47.9861" lon="0.07421">
        <ele>64.442</ele>
        <time>2009-09-26T13:34:52Z</time>
      </trkpt>
      <trkpt lat="47.98601" lon="0.07474">
        <ele>65.413</ele>
        <time>2009-09-26T13:34:59Z</time>
      </trkpt>
      <trkpt lat="47.98601" lon="0.07498">
        <ele>67.585</ele>
        <time>2009-09-26T13:35:02Z</time>
      </trkpt>
      <trkpt lat="47.98606" lon="0.07537">
        <ele>69.315</ele>
        <time>2009-09-26T13:35:07Z</time>
      </trkpt>
      <trkpt lat="47.9861" lon="0.07571">
        <ele>68.483</ele>
        <time>2009-09-26T13:35:11Z</time>
      </trkpt>
      <trkpt lat="47.98612" lon="0.07579">
        <ele>68.513</ele>
        <time>2009-09-26T13:35:12Z</time>
      </trkpt>
      <trkpt lat="47.98625" lon="0.0759">
        <ele>68.465</ele>
        <time>2009-09-26T13:35:16Z</time>
      </trkpt>
      <trkpt lat="47.98631" lon="0.0759">
        <ele>69.165</ele>
        <time>2009-09-26T13:35:18Z</time>
      </trkpt>
      <trkpt lat="47.98661" lon="0.07591">
        <ele>72.364</ele>
        <time>2009-09-26T13:35:27Z</time>
      </trkpt>
      <trkpt lat="47.98681" lon="0.07591">
        <ele>73.064</ele>
        <time>2009-09-26T13:35:32Z</time>
      </trkpt>
      <trkpt lat="47.98707" lon="0.0759">
        <ele>73.644</ele>
        <time>2009-09-26T13:35:38Z</time>
      </trkpt>
      <trkpt lat="47.98717" lon="0.076">
        <ele>74.974</ele>
        <time>2009-09-26T13:35:41Z</time>
      </trkpt>
      <trkpt lat="47.98719" lon="0.07637">
        <ele>78.487</ele>
        <time>2009-09-26T13:35:46Z</time>
      </trkpt>
      <trkpt lat="47.98724" lon="0.07669">
        <ele>78.565</ele>
        <time>2009-09-26T13:35:50Z</time>
      </trkpt>
      <trkpt lat="47.98723" lon="0.07694">
        <ele>79.135</ele>
        <time>2009-09-26T13:35:53Z</time>
      </trkpt>
      <trkpt lat="47.9871" lon="0.07721">
        <ele>75.773</ele>
        <time>2009-09-26T13:35:57Z</time>
      </trkpt>
      <trkpt lat="47.98706" lon="0.07728">
        <ele>74.623</ele>
        <time>2009-09-26T13:35:58Z</time>
      </trkpt>
      <trkpt lat="47.98698" lon="0.07741">
        <ele>72.802</ele>
        <time>2009-09-26T13:36:00Z</time>
      </trkpt>
      <trkpt lat="47.98678" lon="0.07787">
        <ele>71.523</ele>
        <time>2009-09-26T13:36:05Z</time>
      </trkpt>
      <trkpt lat="47.98668" lon="0.07806">
        <ele>70.923</ele>
        <time>2009-09-26T13:36:08Z</time>
      </trkpt>
      <trkpt lat="47.98651" lon="0.07805">
        <ele>70.934</ele>
        <time>2009-09-26T13:36:11Z</time>
      </trkpt>
      <trkpt lat="47.98639" lon="0.07805">
        <ele>70.594</ele>
        <time>2009-09-26T13:36:13Z</time>
      </trkpt>
      <trkpt lat="47.98589" lon="0.07803">
        <ele>65.962</ele>
        <time>2009-09-26T13:36:21Z</time>
      </trkpt>
      <trkpt lat="47.98579" lon="0.07804">
        <ele>64.742</ele>
        <time>2009-09-26T13:36:24Z</time>
      </trkpt>
      <trkpt lat="47.98577" lon="0.07806">
        <ele>64.261</ele>
        <time>2009-09-26T13:36:25Z</time>
      </trkpt>
      <trkpt lat="47.98574" lon="0.0783">
        <ele>64.102</ele>
        <time>2009-09-26T13:36:30Z</time>
      </trkpt>
      <trkpt lat="47.98577" lon="0.07879">
        <ele>63.302</ele>
        <time>2009-09-26T13:36:37Z</time>
      </trkpt>
      <trkpt lat="47.98579" lon="0.07945">
        <ele>62.572</ele>
        <time>2009-09-26T13:36:46Z</time>
      </trkpt>
      <trkpt lat="47.98579" lon="0.08">
        <ele>63.742</ele>
        <time>2009-09-26T13:36:54Z</time>
      </trkpt>
      <trkpt lat="47.98581" lon="0.08026">
        <ele>65.424</ele>
        <time>2009-09-26T13:36:59Z</time>
      </trkpt>
      <trkpt lat="47.98591" lon="0.08058">
        <ele>68.015</ele>
        <time>2009-09-26T13:37:06Z</time>
      </trkpt>
      <trkpt lat="47.98605" lon="0.08074">
        <ele>70.196</ele>
        <time>2009-09-26T13:37:11Z</time>
      </trkpt>
      <trkpt lat="47.98627" lon="0.08083">
        <ele>73.766</ele>
        <time>2009-09-26T13:37:18Z</time>
      </trkpt>
      <trkpt lat="47.98649" lon="0.08092">
        <ele>73.634</ele>
        <time>2009-09-26T13:37:25Z</time>
      </trkpt>
      <trkpt lat="47.98652" lon="0.08125">
        <ele>71.853</ele>
        <time>2009-09-26T13:37:31Z</time>
      </trkpt>
      <trkpt lat="47.98654" lon="0.08156">
        <ele>71.283</ele>
        <time>2009-09-26T13:37:35Z</time>
      </trkpt>
      <trkpt lat="47.98655" lon="0.08179">
        <ele>70.392</ele>
        <time>2009-09-26T13:37:38Z</time>
      </trkpt>
      <trkpt lat="47.98661" lon="0.08207">
        <ele>69.072</ele>
        <time>2009-09-26T13:37:43Z</time>
      </trkpt>
      <trkpt lat="47.9866" lon="0.0821">
        <ele>68.553</ele>
        <time>2009-09-26T13:37:47Z</time>
      </trkpt>
      <trkpt lat="47.98658" lon="0.08213">
        <ele>68.233</ele>
        <time>2009-09-26T13:37:50Z</time>
      </trkpt>
      <trkpt lat="47.98658" lon="0.08231">
        <ele>69.435</ele>
        <time>2009-09-26T13:37:55Z</time>
      </trkpt>
      <trkpt lat="47.98658" lon="0.08237">
        <ele>69.485</ele>
        <time>2009-09-26T13:37:56Z</time>
      </trkpt>
      <trkpt lat="47.98661" lon="0.08277">
        <ele>66.672</ele>
        <time>2009-09-26T13:38:00Z</time>
      </trkpt>
      <trkpt lat="47.98659" lon="0.08328">
        <ele>63.971</ele>
        <time>2009-09-26T13:38:04Z</time>
      </trkpt>
      <trkpt lat="47.98664" lon="0.08381">
        <ele>61.801</ele>
        <time>2009-09-26T13:38:08Z</time>
      </trkpt>
      <trkpt lat="47.98655" lon="0.08427">
        <ele>58.53</ele>
        <time>2009-09-26T13:38:12Z</time>
      </trkpt>
      <trkpt lat="47.98654" lon="0.0845">
        <ele>57.151</ele>
        <time>2009-09-26T13:38:14Z</time>
      </trkpt>
      <trkpt lat="47.98653" lon="0.08478">
        <ele>55.631</ele>
        <time>2009-09-26T13:38:17Z</time>
      </trkpt>
      <trkpt lat="47.9865" lon="0.08493">
        <ele>55.942</ele>
        <time>2009-09-26T13:38:19Z</time>
      </trkpt>
      <trkpt lat="47.9864" lon="0.08518">
        <ele>58.984</ele>
        <time>2009-09-26T13:38:23Z</time>
      </trkpt>
      <trkpt lat="47.98634" lon="0.08529">
        <ele>59.885</ele>
        <time>2009-09-26T13:38:25Z</time>
      </trkpt>
      <trkpt lat="47.98612" lon="0.0855">
        <ele>59.594</ele>
        <time>2009-09-26T13:38:30Z</time>
      </trkpt>
      <trkpt lat="47.98607" lon="0.08559">
        <ele>60.225</ele>
        <time>2009-09-26T13:38:33Z</time>
      </trkpt>
      <trkpt lat="47.98603" lon="0.08574">
        <ele>61.174</ele>
        <time>2009-09-26T13:38:38Z</time>
      </trkpt>
      <trkpt lat="47.98604" lon="0.08583">
        <ele>60.253</ele>
        <time>2009-09-26T13:38:42Z</time>
      </trkpt>
      <trkpt lat="47.98605" lon="0.08601">
        <ele>59.722</ele>
        <time>2009-09-26T13:38:50Z</time>
      </trkpt>
      <trkpt lat="47.98604" lon="0.08614">
        <ele>57.321</ele>
        <time>2009-09-26T13:38:57Z</time>
      </trkpt>
      <trkpt lat="47.98598" lon="0.08613">
        <ele>53.422</ele>
        <time>2009-09-26T13:39:12Z</time>
      </trkpt>
      <trkpt lat="47.98598" lon="0.08616">
        <ele>54.633</ele>
        <time>2009-09-26T13:39:23Z</time>
      </trkpt>
      <trkpt lat="47.986" lon="0.08621">
        <ele>60.744</ele>
        <time>2009-09-26T13:39:32Z</time>
      </trkpt>
      <trkpt lat="47.986" lon="0.08631">
        <ele>58.062</ele>
        <time>2009-09-26T13:39:42Z</time>
      </trkpt>
      <trkpt lat="47.986" lon="0.08636">
        <ele>56.962</ele>
        <time>2009-09-26T13:39:45Z</time>
      </trkpt>
      <trkpt lat="47.98602" lon="0.08641">
        <ele>60.413</ele>
        <time>2009-09-26T13:39:51Z</time>
      </trkpt>
      <trkpt lat="47.98601" lon="0.08653">
        <ele>62.865</ele>
        <time>2009-09-26T13:39:59Z</time>
      </trkpt>
      <trkpt lat="47.986" lon="0.08663">
        <ele>64.214</ele>
        <time>2009-09-26T13:40:06Z</time>
      </trkpt>
      <trkpt lat="47.98599" lon="0.0867">
        <ele>67.955</ele>
        <time>2009-09-26T13:40:11Z</time>
      </trkpt>
      <trkpt lat="47.98598" lon="0.08678">
        <ele>69.925</ele>
        <time>2009-09-26T13:40:17Z</time>
      </trkpt>
      <trkpt lat="47.98599" lon="0.08689">
        <ele>71.474</ele>
        <time>2009-09-26T13:40:26Z</time>
      </trkpt>
      <trkpt lat="47.986" lon="0.08696">
        <ele>75.495</ele>
        <time>2009-09-26T13:40:31Z</time>
      </trkpt>
      <trkpt lat="47.986" lon="0.08699">
        <ele>77.386</ele>
        <time>2009-09-26T13:40:33Z</time>
      </trkpt>
      <trkpt lat="47.98599" lon="0.08711">
        <ele>80.245</ele>
        <time>2009-09-26T13:40:41Z</time>
      </trkpt>
      <trkpt lat="47.986" lon="0.0872">
        <ele>79.274</ele>
        <time>2009-09-26T13:40:48Z</time>
      </trkpt>
      <trkpt lat="47.98598" lon="0.08724">
        <ele>78.603</ele>
        <time>2009-09-26T13:40:53Z</time>
      </trkpt>
      <trkpt lat="47.98599" lon="0.08733">
        <ele>77.674</ele>
        <time>2009-09-26T13:40:57Z</time>
      </trkpt>
      <trkpt lat="47.98605" lon="0.08751">
        <ele>75.873</ele>
        <time>2009-09-26T13:41:05Z</time>
      </trkpt>
      <trkpt lat="47.98607" lon="0.08765">
        <ele>74.153</ele>
        <time>2009-09-26T13:41:10Z</time>
      </trkpt>
      <trkpt lat="47.98608" lon="0.08783">
        <ele>75.523</ele>
        <time>2009-09-26T13:41:16Z</time>
      </trkpt>
      <trkpt lat="47.9861" lon="0.08796">
        <ele>74.152</ele>
        <time>2009-09-26T13:41:21Z</time>
      </trkpt>
      <trkpt lat="47.9861" lon="0.08812">
        <ele>74.643</ele>
        <time>2009-09-26T13:41:28Z</time>
      </trkpt>
      <trkpt lat="47.9861" lon="0.08825">
        <ele>78.663</ele>
        <time>2009-09-26T13:41:35Z</time>
      </trkpt>
      <trkpt lat="47.98609" lon="0.08829">
        <ele>81.824</ele>
        <time>2009-09-26T13:41:40Z</time>
      </trkpt>
      <trkpt lat="47.98609" lon="0.08836">
        <ele>86.787</ele>
        <time>2009-09-26T13:41:47Z</time>
      </trkpt>
      <trkpt lat="47.9861" lon="0.08846">
        <ele>88.296</ele>
        <time>2009-09-26T13:41:54Z</time>
      </trkpt>
      <trkpt lat="47.9861" lon="0.08854">
        <ele>90.156</ele>
        <time>2009-09-26T13:42:01Z</time>
      </trkpt>
      <trkpt lat="47.9861" lon="0.08858">
        <ele>90.335</ele>
        <time>2009-09-26T13:42:04Z</time>
      </trkpt>
      <trkpt lat="47.98611" lon="0.08862">
        <ele>90.094</ele>
        <time>2009-09-26T13:42:07Z</time>
      </trkpt>
      <trkpt lat="47.9861" lon="0.08872">
        <ele>89.015</ele>
        <time>2009-09-26T13:42:15Z</time>
      </trkpt>
      <trkpt lat="47.98611" lon="0.08878">
        <ele>89.756</ele>
        <time>2009-09-26T13:42:21Z</time>
      </trkpt>
      <trkpt lat="47.98613" lon="0.08891">
        <ele>90.415</ele>
        <time>2009-09-26T13:42:29Z</time>
      </trkpt>
      <trkpt lat="47.98616" lon="0.08901">
        <ele>91.805</ele>
        <time>2009-09-26T13:42:36Z</time>
      </trkpt>
      <trkpt lat="47.98618" lon="0.08912">
        <ele>91.484</ele>
        <time>2009-09-26T13:42:44Z</time>
      </trkpt>
      <trkpt lat="47.9862" lon="0.08925">
        <ele>93.444</ele>
        <time>2009-09-26T13:42:53Z</time>
      </trkpt>
      <trkpt lat="47.98621" lon="0.0893">
        <ele>92.163</ele>
        <time>2009-09-26T13:43:00Z</time>
      </trkpt>
      <trkpt lat="47.98623" lon="0.0893">
        <ele>88.384</ele>
        <time>2009-09-26T13:44:41Z</time>
      </trkpt>
      <trkpt lat="47.98627" lon="0.0893">
        <ele>88.923</ele>
        <time>2009-09-26T13:44:57Z</time>
      </trkpt>
      <trkpt lat="47.98629" lon="0.08941">
        <ele>89.614</ele>
        <time>2009-09-26T13:45:02Z</time>
      </trkpt>
      <trkpt lat="47.98633" lon="0.08968">
        <ele>90.433</ele>
        <time>2009-09-26T13:45:08Z</time>
      </trkpt>
      <trkpt lat="47.98636" lon="0.09008">
        <ele>90.883</ele>
        <time>2009-09-26T13:45:15Z</time>
      </trkpt>
      <trkpt lat="47.98644" lon="0.09042">
        <ele>90.233</ele>
        <time>2009-09-26T13:45:21Z</time>
      </trkpt>
      <trkpt lat="47.98661" lon="0.09089">
        <ele>90.914</ele>
        <time>2009-09-26T13:45:29Z</time>
      </trkpt>
      <trkpt lat="47.98675" lon="0.0912">
        <ele>93.775</ele>
        <time>2009-09-26T13:45:36Z</time>
      </trkpt>
      <trkpt lat="47.98686" lon="0.09141">
        <ele>93.585</ele>
        <time>2009-09-26T13:45:42Z</time>
      </trkpt>
      <trkpt lat="47.98686" lon="0.0914">
        <ele>94.094</ele>
        <time>2009-09-26T13:45:49Z</time>
      </trkpt>
      <trkpt lat="47.98684" lon="0.0914">
        <ele>91.673</ele>
        <time>2009-09-26T13:48:28Z</time>
      </trkpt>
      <trkpt lat="47.98686" lon="0.09141">
        <ele>92.413</ele>
        <time>2009-09-26T13:48:30Z</time>
      </trkpt>
      <trkpt lat="47.98694" lon="0.09152">
        <ele>95.605</ele>
        <time>2009-09-26T13:48:37Z</time>
      </trkpt>
      <trkpt lat="47.98707" lon="0.09172">
        <ele>96.574</ele>
        <time>2009-09-26T13:48:43Z</time>
      </trkpt>
      <trkpt lat="47.98713" lon="0.0918">
        <ele>96.854</ele>
        <time>2009-09-26T13:48:45Z</time>
      </trkpt>
      <trkpt lat="47.98742" lon="0.09214">
        <ele>97.654</ele>
        <time>2009-09-26T13:48:53Z</time>
      </trkpt>
      <trkpt lat="47.98757" lon="0.09229">
        <ele>97.764</ele>
        <time>2009-09-26T13:48:57Z</time>
      </trkpt>
      <trkpt lat="47.98767" lon="0.0925">
        <ele>97.344</ele>
        <time>2009-09-26T13:49:01Z</time>
      </trkpt>
      <trkpt lat="47.98769" lon="0.09255">
        <ele>97.624</ele>
        <time>2009-09-26T13:49:02Z</time>
      </trkpt>
      <trkpt lat="47.98775" lon="0.09275">
        <ele>97.324</ele>
        <time>2009-09-26T13:49:07Z</time>
      </trkpt>
      <trkpt lat="47.98781" lon="0.09278">
        <ele>95.193</ele>
        <time>2009-09-26T13:49:12Z</time>
      </trkpt>
      <trkpt lat="47.98796" lon="0.09269">
        <ele>91.832</ele>
        <time>2009-09-26T13:49:18Z</time>
      </trkpt>
      <trkpt lat="47.98826" lon="0.09254">
        <ele>89.491</ele>
        <time>2009-09-26T13:49:24Z</time>
      </trkpt>
      <trkpt lat="47.98867" lon="0.09248">
        <ele>86.891</ele>
        <time>2009-09-26T13:49:30Z</time>
      </trkpt>
      <trkpt lat="47.98904" lon="0.09247">
        <ele>87.068</ele>
        <time>2009-09-26T13:49:35Z</time>
      </trkpt>
      <trkpt lat="47.98945" lon="0.09234">
        <ele>84.222</ele>
        <time>2009-09-26T13:49:40Z</time>
      </trkpt>
      <trkpt lat="47.98954" lon="0.09231">
        <ele>84.347</ele>
        <time>2009-09-26T13:49:41Z</time>
      </trkpt>
      <trkpt lat="47.98998" lon="0.09226">
        <ele>83.42</ele>
        <time>2009-09-26T13:49:45Z</time>
      </trkpt>
      <trkpt lat="47.9901" lon="0.09223">
        <ele>82.753</ele>
        <time>2009-09-26T13:49:46Z</time>
      </trkpt>
      <trkpt lat="47.99058" lon="0.09202">
        <ele>79.513</ele>
        <time>2009-09-26T13:49:51Z</time>
      </trkpt>
      <trkpt lat="47.99088" lon="0.09196">
        <ele>80.096</ele>
        <time>2009-09-26T13:49:55Z</time>
      </trkpt>
      <trkpt lat="47.99105" lon="0.09194">
        <ele>79.505</ele>
        <time>2009-09-26T13:49:59Z</time>
      </trkpt>
      <trkpt lat="47.99113" lon="0.09203">
        <ele>78.855</ele>
        <time>2009-09-26T13:50:04Z</time>
      </trkpt>
      <trkpt lat="47.99124" lon="0.09212">
        <ele>81.065</ele>
        <time>2009-09-26T13:50:09Z</time>
      </trkpt>
      <trkpt lat="47.99142" lon="0.09232">
        <ele>81.175</ele>
        <time>2009-09-26T13:50:16Z</time>
      </trkpt>
      <trkpt lat="47.99151" lon="0.09246">
        <ele>80.984</ele>
        <time>2009-09-26T13:50:21Z</time>
      </trkpt>
      <trkpt lat="47.99155" lon="0.09254">
        <ele>80.274</ele>
        <time>2009-09-26T13:50:26Z</time>
      </trkpt>
      <trkpt lat="47.99156" lon="0.09258">
        <ele>80.264</ele>
        <time>2009-09-26T13:50:32Z</time>
      </trkpt>
      <trkpt lat="47.99157" lon="0.09263">
        <ele>78.914</ele>
        <time>2009-09-26T13:50:37Z</time>
      </trkpt>
      <trkpt lat="47.99157" lon="0.09264">
        <ele>76.823</ele>
        <time>2009-09-26T13:50:40Z</time>
      </trkpt>
      <trkpt lat="47.99159" lon="0.09274">
        <ele>76.876</ele>
        <time>2009-09-26T13:50:45Z</time>
      </trkpt>
      <trkpt lat="47.99161" lon="0.0928">
        <ele>76.455</ele>
        <time>2009-09-26T13:50:47Z</time>
      </trkpt>
      <trkpt lat="47.99166" lon="0.09298">
        <ele>76.987</ele>
        <time>2009-09-26T13:50:54Z</time>
      </trkpt>
      <trkpt lat="47.99167" lon="0.09311">
        <ele>78.379</ele>
        <time>2009-09-26T13:50:59Z</time>
      </trkpt>
      <trkpt lat="47.99167" lon="0.09326">
        <ele>82.429</ele>
        <time>2009-09-26T13:51:07Z</time>
      </trkpt>
      <trkpt lat="47.99166" lon="0.09332">
        <ele>84.138</ele>
        <time>2009-09-26T13:51:13Z</time>
      </trkpt>
      <trkpt lat="47.99167" lon="0.09342">
        <ele>85.398</ele>
        <time>2009-09-26T13:51:20Z</time>
      </trkpt>
      <trkpt lat="47.99168" lon="0.09351">
        <ele>92.059</ele>
        <time>2009-09-26T13:51:29Z</time>
      </trkpt>
      <trkpt lat="47.9917" lon="0.09359">
        <ele>97.509</ele>
        <time>2009-09-26T13:51:36Z</time>
      </trkpt>
      <trkpt lat="47.99172" lon="0.09375">
        <ele>100.49</ele>
        <time>2009-09-26T13:51:43Z</time>
      </trkpt>
      <trkpt lat="47.99172" lon="0.09394">
        <ele>105.169</ele>
        <time>2009-09-26T13:51:50Z</time>
      </trkpt>
      <trkpt lat="47.99173" lon="0.09412">
        <ele>109.92</ele>
        <time>2009-09-26T13:51:57Z</time>
      </trkpt>
      <trkpt lat="47.99173" lon="0.0942">
        <ele>107.841</ele>
        <time>2009-09-26T13:52:00Z</time>
      </trkpt>
      <trkpt lat="47.99168" lon="0.09444">
        <ele>103.774</ele>
        <time>2009-09-26T13:52:08Z</time>
      </trkpt>
      <trkpt lat="47.99167" lon="0.09448">
        <ele>102.864</ele>
        <time>2009-09-26T13:52:10Z</time>
      </trkpt>
      <trkpt lat="47.99162" lon="0.09455">
        <ele>102.954</ele>
        <time>2009-09-26T13:52:14Z</time>
      </trkpt>
      <trkpt lat="47.99151" lon="0.09466">
        <ele>103.764</ele>
        <time>2009-09-26T13:52:19Z</time>
      </trkpt>
      <trkpt lat="47.99135" lon="0.09491">
        <ele>100.713</ele>
        <time>2009-09-26T13:52:24Z</time>
      </trkpt>
      <trkpt lat="47.99127" lon="0.09521">
        <ele>101.143</ele>
        <time>2009-09-26T13:52:28Z</time>
      </trkpt>
      <trkpt lat="47.99122" lon="0.09557">
        <ele>101.885</ele>
        <time>2009-09-26T13:52:33Z</time>
      </trkpt>
      <trkpt lat="47.9912" lon="0.09586">
        <ele>100.247</ele>
        <time>2009-09-26T13:52:38Z</time>
      </trkpt>
      <trkpt lat="47.99118" lon="0.09602">
        <ele>101.817</ele>
        <time>2009-09-26T13:52:43Z</time>
      </trkpt>
      <trkpt lat="47.99116" lon="0.09622">
        <ele>102.656</ele>
        <time>2009-09-26T13:52:49Z</time>
      </trkpt>
      <trkpt lat="47.99115" lon="0.0964">
        <ele>105.928</ele>
        <time>2009-09-26T13:52:55Z</time>
      </trkpt>
      <trkpt lat="47.99115" lon="0.09652">
        <ele>109.059</ele>
        <time>2009-09-26T13:52:59Z</time>
      </trkpt>
      <trkpt lat="47.99111" lon="0.0967">
        <ele>111.57</ele>
        <time>2009-09-26T13:53:05Z</time>
      </trkpt>
      <trkpt lat="47.99109" lon="0.09687">
        <ele>115.55</ele>
        <time>2009-09-26T13:53:11Z</time>
      </trkpt>
      <trkpt lat="47.99104" lon="0.09715">
        <ele>114.137</ele>
        <time>2009-09-26T13:53:19Z</time>
      </trkpt>
      <trkpt lat="47.991" lon="0.09746">
        <ele>112.326</ele>
        <time>2009-09-26T13:53:25Z</time>
      </trkpt>
      <trkpt lat="47.99099" lon="0.09779">
        <ele>113.087</ele>
        <time>2009-09-26T13:53:32Z</time>
      </trkpt>
      <trkpt lat="47.991" lon="0.09811">
        <ele>113.707</ele>
        <time>2009-09-26T13:53:39Z</time>
      </trkpt>
      <trkpt lat="47.991" lon="0.09827">
        <ele>111.555</ele>
        <time>2009-09-26T13:53:43Z</time>
      </trkpt>
      <trkpt lat="47.99088" lon="0.09831">
        <ele>110.265</ele>
        <time>2009-09-26T13:53:48Z</time>
      </trkpt>
      <trkpt lat="47.99073" lon="0.09828">
        <ele>108.725</ele>
        <time>2009-09-26T13:53:52Z</time>
      </trkpt>
      <trkpt lat="47.99047" lon="0.09812">
        <ele>108.035</ele>
        <time>2009-09-26T13:53:58Z</time>
      </trkpt>
      <trkpt lat="47.99039" lon="0.09801">
        <ele>108.626</ele>
        <time>2009-09-26T13:54:00Z</time>
      </trkpt>
      <trkpt lat="47.99006" lon="0.09753">
        <ele>107.006</ele>
        <time>2009-09-26T13:54:07Z</time>
      </trkpt>
      <trkpt lat="47.98996" lon="0.09739">
        <ele>105.055</ele>
        <time>2009-09-26T13:54:09Z</time>
      </trkpt>
      <trkpt lat="47.98965" lon="0.09708">
        <ele>100.693</ele>
        <time>2009-09-26T13:54:14Z</time>
      </trkpt>
      <trkpt lat="47.98913" lon="0.09668">
        <ele>98.655</ele>
        <time>2009-09-26T13:54:22Z</time>
      </trkpt>
      <trkpt lat="47.98875" lon="0.0964">
        <ele>100.097</ele>
        <time>2009-09-26T13:54:29Z</time>
      </trkpt>
      <trkpt lat="47.98871" lon="0.09654">
        <ele>101.777</ele>
        <time>2009-09-26T13:54:33Z</time>
      </trkpt>
      <trkpt lat="47.98875" lon="0.09669">
        <ele>102.627</ele>
        <time>2009-09-26T13:54:35Z</time>
      </trkpt>
      <trkpt lat="47.98889" lon="0.09717">
        <ele>102.951</ele>
        <time>2009-09-26T13:54:40Z</time>
      </trkpt>
      <trkpt lat="47.98892" lon="0.09727">
        <ele>102.81</ele>
        <time>2009-09-26T13:54:41Z</time>
      </trkpt>
      <trkpt lat="47.98901" lon="0.09785">
        <ele>99.554</ele>
        <time>2009-09-26T13:54:45Z</time>
      </trkpt>
      <trkpt lat="47.98906" lon="0.09857">
        <ele>98.033</ele>
        <time>2009-09-26T13:54:50Z</time>
      </trkpt>
      <trkpt lat="47.98894" lon="0.099">
        <ele>95.922</ele>
        <time>2009-09-26T13:54:54Z</time>
      </trkpt>
      <trkpt lat="47.98888" lon="0.09909">
        <ele>94.771</ele>
        <time>2009-09-26T13:54:55Z</time>
      </trkpt>
      <trkpt lat="47.98867" lon="0.09951">
        <ele>92.401</ele>
        <time>2009-09-26T13:54:59Z</time>
      </trkpt>
      <trkpt lat="47.98865" lon="0.09985">
        <ele>91.744</ele>
        <time>2009-09-26T13:55:03Z</time>
      </trkpt>
      <trkpt lat="47.98881" lon="0.1002">
        <ele>91.035</ele>
        <time>2009-09-26T13:55:08Z</time>
      </trkpt>
      <trkpt lat="47.98898" lon="0.10027">
        <ele>92.046</ele>
        <time>2009-09-26T13:55:12Z</time>
      </trkpt>
      <trkpt lat="47.98918" lon="0.10023">
        <ele>94.376</ele>
        <time>2009-09-26T13:55:18Z</time>
      </trkpt>
      <trkpt lat="47.98923" lon="0.10027">
        <ele>95.026</ele>
        <time>2009-09-26T13:55:20Z</time>
      </trkpt>
      <trkpt lat="47.98925" lon="0.10056">
        <ele>94.224</ele>
        <time>2009-09-26T13:55:25Z</time>
      </trkpt>
      <trkpt lat="47.98929" lon="0.10108">
        <ele>92.714</ele>
        <time>2009-09-26T13:55:31Z</time>
      </trkpt>
      <trkpt lat="47.98943" lon="0.10163">
        <ele>91.424</ele>
        <time>2009-09-26T13:55:37Z</time>
      </trkpt>
      <trkpt lat="47.98964" lon="0.10234">
        <ele>89.523</ele>
        <time>2009-09-26T13:55:44Z</time>
      </trkpt>
      <trkpt lat="47.98991" lon="0.10326">
        <ele>88.534</ele>
        <time>2009-09-26T13:55:53Z</time>
      </trkpt>
      <trkpt lat="47.98993" lon="0.10335">
        <ele>88.585</ele>
        <time>2009-09-26T13:55:54Z</time>
      </trkpt>
      <trkpt lat="47.99007" lon="0.10344">
        <ele>88.975</ele>
        <time>2009-09-26T13:55:58Z</time>
      </trkpt>
      <trkpt lat="47.99013" lon="0.10339">
        <ele>89.105</ele>
        <time>2009-09-26T13:56:00Z</time>
      </trkpt>
      <trkpt lat="47.99046" lon="0.10314">
        <ele>89.955</ele>
        <time>2009-09-26T13:56:09Z</time>
      </trkpt>
      <trkpt lat="47.99067" lon="0.10296">
        <ele>92.827</ele>
        <time>2009-09-26T13:56:16Z</time>
      </trkpt>
      <trkpt lat="47.99085" lon="0.10279">
        <ele>94.646</ele>
        <time>2009-09-26T13:56:23Z</time>
      </trkpt>
      <trkpt lat="47.99099" lon="0.10265">
        <ele>94.435</ele>
        <time>2009-09-26T13:56:30Z</time>
      </trkpt>
      <trkpt lat="47.99106" lon="0.10255">
        <ele>96.287</ele>
        <time>2009-09-26T13:56:37Z</time>
      </trkpt>
      <trkpt lat="47.99111" lon="0.10244">
        <ele>97.665</ele>
        <time>2009-09-26T13:56:43Z</time>
      </trkpt>
      <trkpt lat="47.99116" lon="0.10232">
        <ele>99.116</ele>
        <time>2009-09-26T13:56:48Z</time>
      </trkpt>
      <trkpt lat="47.99121" lon="0.10217">
        <ele>98.126</ele>
        <time>2009-09-26T13:56:55Z</time>
      </trkpt>
      <trkpt lat="47.99128" lon="0.10203">
        <ele>96.572</ele>
        <time>2009-09-26T13:57:01Z</time>
      </trkpt>
      <trkpt lat="47.99132" lon="0.10193">
        <ele>95.496</ele>
        <time>2009-09-26T13:57:05Z</time>
      </trkpt>
      <trkpt lat="47.99134" lon="0.10178">
        <ele>95.136</ele>
        <time>2009-09-26T13:57:11Z</time>
      </trkpt>
      <trkpt lat="47.99132" lon="0.10167">
        <ele>95.356</ele>
        <time>2009-09-26T13:57:15Z</time>
      </trkpt>
      <trkpt lat="47.99123" lon="0.10141">
        <ele>98.918</ele>
        <time>2009-09-26T13:57:23Z</time>
      </trkpt>
      <trkpt lat="47.99114" lon="0.10125">
        <ele>97.636</ele>
        <time>2009-09-26T13:57:28Z</time>
      </trkpt>
      <trkpt lat="47.99101" lon="0.10105">
        <ele>98.447</ele>
        <time>2009-09-26T13:57:34Z</time>
      </trkpt>
      <trkpt lat="47.99092" lon="0.10079">
        <ele>103.938</ele>
        <time>2009-09-26T13:57:39Z</time>
      </trkpt>
      <trkpt lat="47.99091" lon="0.10074">
        <ele>104.588</ele>
        <time>2009-09-26T13:57:40Z</time>
      </trkpt>
      <trkpt lat="47.99081" lon="0.10032">
        <ele>104.898</ele>
        <time>2009-09-26T13:57:47Z</time>
      </trkpt>
      <trkpt lat="47.99075" lon="0.10004">
        <ele>106.478</ele>
        <time>2009-09-26T13:57:53Z</time>
      </trkpt>
      <trkpt lat="47.99074" lon="0.0998">
        <ele>105.157</ele>
        <time>2009-09-26T13:57:58Z</time>
      </trkpt>
      <trkpt lat="47.99085" lon="0.0995">
        <ele>105.808</ele>
        <time>2009-09-26T13:58:04Z</time>
      </trkpt>
      <trkpt lat="47.99091" lon="0.09921">
        <ele>106.958</ele>
        <time>2009-09-26T13:58:09Z</time>
      </trkpt>
      <trkpt lat="47.991" lon="0.0989">
        <ele>111.019</ele>
        <time>2009-09-26T13:58:16Z</time>
      </trkpt>
      <trkpt lat="47.99106" lon="0.09871">
        <ele>111.228</ele>
        <time>2009-09-26T13:58:22Z</time>
      </trkpt>
      <trkpt lat="47.99115" lon="0.09844">
        <ele>110.057</ele>
        <time>2009-09-26T13:58:30Z</time>
      </trkpt>
      <trkpt lat="47.99122" lon="0.09834">
        <ele>108.285</ele>
        <time>2009-09-26T13:58:35Z</time>
      </trkpt>
      <trkpt lat="47.99132" lon="0.09838">
        <ele>111.267</ele>
        <time>2009-09-26T13:58:41Z</time>
      </trkpt>
      <trkpt lat="47.99141" lon="0.0984">
        <ele>114.326</ele>
        <time>2009-09-26T13:58:47Z</time>
      </trkpt>
      <trkpt lat="47.99147" lon="0.09841">
        <ele>114.737</ele>
        <time>2009-09-26T13:58:54Z</time>
      </trkpt>
      <trkpt lat="47.99162" lon="0.09844">
        <ele>115.778</ele>
        <time>2009-09-26T13:59:00Z</time>
      </trkpt>
      <trkpt lat="47.99184" lon="0.09851">
        <ele>116.787</ele>
        <time>2009-09-26T13:59:07Z</time>
      </trkpt>
      <trkpt lat="47.99206" lon="0.09865">
        <ele>118.977</ele>
        <time>2009-09-26T13:59:14Z</time>
      </trkpt>
      <trkpt lat="47.99234" lon="0.09882">
        <ele>121.726</ele>
        <time>2009-09-26T13:59:22Z</time>
      </trkpt>
      <trkpt lat="47.99268" lon="0.09893">
        <ele>122.967</ele>
        <time>2009-09-26T13:59:30Z</time>
      </trkpt>
      <trkpt lat="47.99296" lon="0.09902">
        <ele>122.416</ele>
        <time>2009-09-26T13:59:36Z</time>
      </trkpt>
      <trkpt lat="47.99332" lon="0.09927">
        <ele>123.347</ele>
        <time>2009-09-26T13:59:44Z</time>
      </trkpt>
      <trkpt lat="47.99369" lon="0.09972">
        <ele>121.327</ele>
        <time>2009-09-26T13:59:52Z</time>
      </trkpt>
      <trkpt lat="47.99391" lon="0.09985">
        <ele>120.847</ele>
        <time>2009-09-26T13:59:56Z</time>
      </trkpt>
      <trkpt lat="47.99422" lon="0.10016">
        <ele>119.146</ele>
        <time>2009-09-26T14:00:03Z</time>
      </trkpt>
      <trkpt lat="47.99426" lon="0.10021">
        <ele>118.516</ele>
        <time>2009-09-26T14:00:04Z</time>
      </trkpt>
      <trkpt lat="47.99444" lon="0.1004">
        <ele>116.365</ele>
        <time>2009-09-26T14:00:09Z</time>
      </trkpt>
      <trkpt lat="47.99448" lon="0.10049">
        <ele>115.246</ele>
        <time>2009-09-26T14:00:12Z</time>
      </trkpt>
      <trkpt lat="47.99456" lon="0.10056">
        <ele>114.596</ele>
        <time>2009-09-26T14:00:15Z</time>
      </trkpt>
      <trkpt lat="47.99466" lon="0.10071">
        <ele>113.947</ele>
        <time>2009-09-26T14:00:21Z</time>
      </trkpt>
      <trkpt lat="47.99467" lon="0.10072">
        <ele>113.627</ele>
        <time>2009-09-26T14:00:24Z</time>
      </trkpt>
      <trkpt lat="47.99466" lon="0.10067">
        <ele>114.087</ele>
        <time>2009-09-26T14:00:28Z</time>
      </trkpt>
      <trkpt lat="47.99452" lon="0.1005">
        <ele>111.726</ele>
        <time>2009-09-26T14:00:35Z</time>
      </trkpt>
      <trkpt lat="47.99449" lon="0.10048">
        <ele>110.965</ele>
        <time>2009-09-26T14:00:36Z</time>
      </trkpt>
      <trkpt lat="47.99434" lon="0.1006">
        <ele>109.636</ele>
        <time>2009-09-26T14:00:41Z</time>
      </trkpt>
      <trkpt lat="47.99424" lon="0.10078">
        <ele>108.256</ele>
        <time>2009-09-26T14:00:45Z</time>
      </trkpt>
      <trkpt lat="47.99418" lon="0.1009">
        <ele>107.466</ele>
        <time>2009-09-26T14:00:48Z</time>
      </trkpt>
      <trkpt lat="47.99419" lon="0.10111">
        <ele>107.607</ele>
        <time>2009-09-26T14:00:53Z</time>
      </trkpt>
      <trkpt lat="47.99421" lon="0.10114">
        <ele>107.627</ele>
        <time>2009-09-26T14:00:54Z</time>
      </trkpt>
      <trkpt lat="47.99432" lon="0.10126">
        <ele>107.637</ele>
        <time>2009-09-26T14:00:58Z</time>
      </trkpt>
      <trkpt lat="47.99428" lon="0.10142">
        <ele>107.117</ele>
        <time>2009-09-26T14:01:02Z</time>
      </trkpt>
      <trkpt lat="47.99425" lon="0.10149">
        <ele>106.696</ele>
        <time>2009-09-26T14:01:04Z</time>
      </trkpt>
      <trkpt lat="47.99423" lon="0.10154">
        <ele>105.066</ele>
        <time>2009-09-26T14:01:09Z</time>
      </trkpt>
      <trkpt lat="47.99424" lon="0.10158">
        <ele>104.636</ele>
        <time>2009-09-26T14:01:12Z</time>
      </trkpt>
      <trkpt lat="47.99418" lon="0.10172">
        <ele>103.306</ele>
        <time>2009-09-26T14:01:17Z</time>
      </trkpt>
      <trkpt lat="47.99411" lon="0.10187">
        <ele>102.616</ele>
        <time>2009-09-26T14:01:21Z</time>
      </trkpt>
      <trkpt lat="47.99408" lon="0.10195">
        <ele>102.456</ele>
        <time>2009-09-26T14:01:23Z</time>
      </trkpt>
      <trkpt lat="47.99394" lon="0.10212">
        <ele>101.896</ele>
        <time>2009-09-26T14:01:28Z</time>
      </trkpt>
      <trkpt lat="47.99375" lon="0.10233">
        <ele>101.403</ele>
        <time>2009-09-26T14:01:32Z</time>
      </trkpt>
      <trkpt lat="47.99344" lon="0.10263">
        <ele>100.271</ele>
        <time>2009-09-26T14:01:37Z</time>
      </trkpt>
      <trkpt lat="47.99308" lon="0.10302">
        <ele>96.986</ele>
        <time>2009-09-26T14:01:42Z</time>
      </trkpt>
      <trkpt lat="47.99256" lon="0.10372">
        <ele>94.433</ele>
        <time>2009-09-26T14:01:49Z</time>
      </trkpt>
      <trkpt lat="47.99239" lon="0.10403">
        <ele>92.982</ele>
        <time>2009-09-26T14:01:52Z</time>
      </trkpt>
      <trkpt lat="47.99227" lon="0.10445">
        <ele>90.022</ele>
        <time>2009-09-26T14:01:56Z</time>
      </trkpt>
      <trkpt lat="47.99225" lon="0.10457">
        <ele>89.592</ele>
        <time>2009-09-26T14:01:57Z</time>
      </trkpt>
      <trkpt lat="47.99207" lon="0.10511">
        <ele>87.573</ele>
        <time>2009-09-26T14:02:02Z</time>
      </trkpt>
      <trkpt lat="47.99188" lon="0.10522">
        <ele>88.445</ele>
        <time>2009-09-26T14:02:05Z</time>
      </trkpt>
      <trkpt lat="47.99175" lon="0.10526">
        <ele>88.665</ele>
        <time>2009-09-26T14:02:07Z</time>
      </trkpt>
      <trkpt lat="47.99149" lon="0.10536">
        <ele>89.797</ele>
        <time>2009-09-26T14:02:11Z</time>
      </trkpt>
      <trkpt lat="47.99113" lon="0.10555">
        <ele>88.536</ele>
        <time>2009-09-26T14:02:17Z</time>
      </trkpt>
      <trkpt lat="47.99101" lon="0.10563">
        <ele>87.696</ele>
        <time>2009-09-26T14:02:21Z</time>
      </trkpt>
      <trkpt lat="47.9909" lon="0.10556">
        <ele>87.005</ele>
        <time>2009-09-26T14:02:26Z</time>
      </trkpt>
      <trkpt lat="47.9908" lon="0.10552">
        <ele>86.686</ele>
        <time>2009-09-26T14:02:29Z</time>
      </trkpt>
      <trkpt lat="47.99069" lon="0.10564">
        <ele>85.204</ele>
        <time>2009-09-26T14:02:32Z</time>
      </trkpt>
      <trkpt lat="47.99059" lon="0.10572">
        <ele>84.333</ele>
        <time>2009-09-26T14:02:34Z</time>
      </trkpt>
      <trkpt lat="47.99044" lon="0.1059">
        <ele>83.383</ele>
        <time>2009-09-26T14:02:37Z</time>
      </trkpt>
      <trkpt lat="47.99029" lon="0.10613">
        <ele>82.874</ele>
        <time>2009-09-26T14:02:40Z</time>
      </trkpt>
      <trkpt lat="47.99004" lon="0.10665">
        <ele>84.356</ele>
        <time>2009-09-26T14:02:46Z</time>
      </trkpt>
      <trkpt lat="47.99001" lon="0.10673">
        <ele>84.576</ele>
        <time>2009-09-26T14:02:47Z</time>
      </trkpt>
      <trkpt lat="47.98997" lon="0.107">
        <ele>84.197</ele>
        <time>2009-09-26T14:02:50Z</time>
      </trkpt>
      <trkpt lat="47.98996" lon="0.10741">
        <ele>85.257</ele>
        <time>2009-09-26T14:02:54Z</time>
      </trkpt>
      <trkpt lat="47.98999" lon="0.10795">
        <ele>87.126</ele>
        <time>2009-09-26T14:02:59Z</time>
      </trkpt>
      <trkpt lat="47.99001" lon="0.10858">
        <ele>84.204</ele>
        <time>2009-09-26T14:03:05Z</time>
      </trkpt>
      <trkpt lat="47.99002" lon="0.10868">
        <ele>83.514</ele>
        <time>2009-09-26T14:03:06Z</time>
      </trkpt>
      <trkpt lat="47.99016" lon="0.10906">
        <ele>82.704</ele>
        <time>2009-09-26T14:03:11Z</time>
      </trkpt>
      <trkpt lat="47.99024" lon="0.10914">
        <ele>82.724</ele>
        <time>2009-09-26T14:03:13Z</time>
      </trkpt>
      <trkpt lat="47.99061" lon="0.10942">
        <ele>82.645</ele>
        <time>2009-09-26T14:03:21Z</time>
      </trkpt>
      <trkpt lat="47.99074" lon="0.10962">
        <ele>82.405</ele>
        <time>2009-09-26T14:03:25Z</time>
      </trkpt>
      <trkpt lat="47.99079" lon="0.10979">
        <ele>82.345</ele>
        <time>2009-09-26T14:03:29Z</time>
      </trkpt>
      <trkpt lat="47.99081" lon="0.10976">
        <ele>82.175</ele>
        <time>2009-09-26T14:03:33Z</time>
      </trkpt>
      <trkpt lat="47.99084" lon="0.10962">
        <ele>81.985</ele>
        <time>2009-09-26T14:03:36Z</time>
      </trkpt>
      <trkpt lat="47.9909" lon="0.10955">
        <ele>82.185</ele>
        <time>2009-09-26T14:03:38Z</time>
      </trkpt>
      <trkpt lat="47.99098" lon="0.10948">
        <ele>82.616</ele>
        <time>2009-09-26T14:03:40Z</time>
      </trkpt>
      <trkpt lat="47.99123" lon="0.10938">
        <ele>84.217</ele>
        <time>2009-09-26T14:03:46Z</time>
      </trkpt>
      <trkpt lat="47.99143" lon="0.10926">
        <ele>84.907</ele>
        <time>2009-09-26T14:03:51Z</time>
      </trkpt>
      <trkpt lat="47.99175" lon="0.10916">
        <ele>86.078</ele>
        <time>2009-09-26T14:03:59Z</time>
      </trkpt>
      <trkpt lat="47.99188" lon="0.10912">
        <ele>86.528</ele>
        <time>2009-09-26T14:04:03Z</time>
      </trkpt>
      <trkpt lat="47.99192" lon="0.10895">
        <ele>86.127</ele>
        <time>2009-09-26T14:04:08Z</time>
      </trkpt>
      <trkpt lat="47.9919" lon="0.10887">
        <ele>86.207</ele>
        <time>2009-09-26T14:04:10Z</time>
      </trkpt>
      <trkpt lat="47.99186" lon="0.1085">
        <ele>87.478</ele>
        <time>2009-09-26T14:04:18Z</time>
      </trkpt>
      <trkpt lat="47.99189" lon="0.10823">
        <ele>87.006</ele>
        <time>2009-09-26T14:04:24Z</time>
      </trkpt>
      <trkpt lat="47.99196" lon="0.1079">
        <ele>86.876</ele>
        <time>2009-09-26T14:04:32Z</time>
      </trkpt>
      <trkpt lat="47.99204" lon="0.10755">
        <ele>86.677</ele>
        <time>2009-09-26T14:04:40Z</time>
      </trkpt>
      <trkpt lat="47.99211" lon="0.10718">
        <ele>87.607</ele>
        <time>2009-09-26T14:04:49Z</time>
      </trkpt>
      <trkpt lat="47.99221" lon="0.10706">
        <ele>90.208</ele>
        <time>2009-09-26T14:04:54Z</time>
      </trkpt>
      <trkpt lat="47.99236" lon="0.10706">
        <ele>90.367</ele>
        <time>2009-09-26T14:05:01Z</time>
      </trkpt>
      <trkpt lat="47.99255" lon="0.10705">
        <ele>92.378</ele>
        <time>2009-09-26T14:05:09Z</time>
      </trkpt>
      <trkpt lat="47.99275" lon="0.10702">
        <ele>94.608</ele>
        <time>2009-09-26T14:05:17Z</time>
      </trkpt>
      <trkpt lat="47.99294" lon="0.10701">
        <ele>96.357</ele>
        <time>2009-09-26T14:05:25Z</time>
      </trkpt>
      <trkpt lat="47.99312" lon="0.10709">
        <ele>97.027</ele>
        <time>2009-09-26T14:05:32Z</time>
      </trkpt>
      <trkpt lat="47.99327" lon="0.10724">
        <ele>97.717</ele>
        <time>2009-09-26T14:05:39Z</time>
      </trkpt>
      <trkpt lat="47.99336" lon="0.10736">
        <ele>99.197</ele>
        <time>2009-09-26T14:05:45Z</time>
      </trkpt>
      <trkpt lat="47.99351" lon="0.10753">
        <ele>100.226</ele>
        <time>2009-09-26T14:05:53Z</time>
      </trkpt>
      <trkpt lat="47.99365" lon="0.10757">
        <ele>101.629</ele>
        <time>2009-09-26T14:05:58Z</time>
      </trkpt>
      <trkpt lat="47.99385" lon="0.10758">
        <ele>103.999</ele>
        <time>2009-09-26T14:06:05Z</time>
      </trkpt>
      <trkpt lat="47.99404" lon="0.10753">
        <ele>104.898</ele>
        <time>2009-09-26T14:06:12Z</time>
      </trkpt>
      <trkpt lat="47.99407" lon="0.10735">
        <ele>104.548</ele>
        <time>2009-09-26T14:06:16Z</time>
      </trkpt>
      <trkpt lat="47.99415" lon="0.10696">
        <ele>104.358</ele>
        <time>2009-09-26T14:06:24Z</time>
      </trkpt>
      <trkpt lat="47.99423" lon="0.10669">
        <ele>104.887</ele>
        <time>2009-09-26T14:06:30Z</time>
      </trkpt>
      <trkpt lat="47.99439" lon="0.10651">
        <ele>103.666</ele>
        <time>2009-09-26T14:06:35Z</time>
      </trkpt>
      <trkpt lat="47.99459" lon="0.10635">
        <ele>103.807</ele>
        <time>2009-09-26T14:06:41Z</time>
      </trkpt>
      <trkpt lat="47.99467" lon="0.10635">
        <ele>104.228</ele>
        <time>2009-09-26T14:06:46Z</time>
      </trkpt>
      <trkpt lat="47.99467" lon="0.10636">
        <ele>105.238</ele>
        <time>2009-09-26T14:06:53Z</time>
      </trkpt>
      <trkpt lat="47.99467" lon="0.10639">
        <ele>105.808</ele>
        <time>2009-09-26T14:07:21Z</time>
      </trkpt>
      <trkpt lat="47.99474" lon="0.10642">
        <ele>106.488</ele>
        <time>2009-09-26T14:07:27Z</time>
      </trkpt>
      <trkpt lat="47.99484" lon="0.10645">
        <ele>107.57</ele>
        <time>2009-09-26T14:07:32Z</time>
      </trkpt>
      <trkpt lat="47.99499" lon="0.10648">
        <ele>108.259</ele>
        <time>2009-09-26T14:07:36Z</time>
      </trkpt>
      <trkpt lat="47.99521" lon="0.10652">
        <ele>109.379</ele>
        <time>2009-09-26T14:07:41Z</time>
      </trkpt>
      <trkpt lat="47.99535" lon="0.10654">
        <ele>108.308</ele>
        <time>2009-09-26T14:07:44Z</time>
      </trkpt>
      <trkpt lat="47.99551" lon="0.10642">
        <ele>106.597</ele>
        <time>2009-09-26T14:07:49Z</time>
      </trkpt>
      <trkpt lat="47.99562" lon="0.10632">
        <ele>106.067</ele>
        <time>2009-09-26T14:07:52Z</time>
      </trkpt>
      <trkpt lat="47.99569" lon="0.10625">
        <ele>105.797</ele>
        <time>2009-09-26T14:07:54Z</time>
      </trkpt>
      <trkpt lat="47.99593" lon="0.10597">
        <ele>107.26</ele>
        <time>2009-09-26T14:08:01Z</time>
      </trkpt>
      <trkpt lat="47.99606" lon="0.10588">
        <ele>108.72</ele>
        <time>2009-09-26T14:08:06Z</time>
      </trkpt>
      <trkpt lat="47.99624" lon="0.10568">
        <ele>111.25</ele>
        <time>2009-09-26T14:08:14Z</time>
      </trkpt>
      <trkpt lat="47.99632" lon="0.10554">
        <ele>113.46</ele>
        <time>2009-09-26T14:08:19Z</time>
      </trkpt>
      <trkpt lat="47.99627" lon="0.10535">
        <ele>111.928</ele>
        <time>2009-09-26T14:08:24Z</time>
      </trkpt>
      <trkpt lat="47.99626" lon="0.1053">
        <ele>111.378</ele>
        <time>2009-09-26T14:08:25Z</time>
      </trkpt>
      <trkpt lat="47.99632" lon="0.1051">
        <ele>111.629</ele>
        <time>2009-09-26T14:08:30Z</time>
      </trkpt>
      <trkpt lat="47.99649" lon="0.10499">
        <ele>112.108</ele>
        <time>2009-09-26T14:08:36Z</time>
      </trkpt>
      <trkpt lat="47.9967" lon="0.10483">
        <ele>112.549</ele>
        <time>2009-09-26T14:08:42Z</time>
      </trkpt>
      <trkpt lat="47.99686" lon="0.10471">
        <ele>114.895</ele>
        <time>2009-09-26T14:08:47Z</time>
      </trkpt>
      <trkpt lat="47.99704" lon="0.1046">
        <ele>115.366</ele>
        <time>2009-09-26T14:08:53Z</time>
      </trkpt>
      <trkpt lat="47.99725" lon="0.10449">
        <ele>116.248</ele>
        <time>2009-09-26T14:08:59Z</time>
      </trkpt>
      <trkpt lat="47.9973" lon="0.10446">
        <ele>116.272</ele>
        <time>2009-09-26T14:09:00Z</time>
      </trkpt>
      <trkpt lat="47.99743" lon="0.1044">
        <ele>115.869</ele>
        <time>2009-09-26T14:09:03Z</time>
      </trkpt>
      <trkpt lat="47.99777" lon="0.10416">
        <ele>115.449</ele>
        <time>2009-09-26T14:09:11Z</time>
      </trkpt>
      <trkpt lat="47.99803" lon="0.10398">
        <ele>116.34</ele>
        <time>2009-09-26T14:09:18Z</time>
      </trkpt>
      <trkpt lat="47.99822" lon="0.10386">
        <ele>116.219</ele>
        <time>2009-09-26T14:09:23Z</time>
      </trkpt>
      <trkpt lat="47.99834" lon="0.10398">
        <ele>117.99</ele>
        <time>2009-09-26T14:09:27Z</time>
      </trkpt>
      <trkpt lat="47.9985" lon="0.10436">
        <ele>121.112</ele>
        <time>2009-09-26T14:09:34Z</time>
      </trkpt>
      <trkpt lat="47.99858" lon="0.10447">
        <ele>121.671</ele>
        <time>2009-09-26T14:09:37Z</time>
      </trkpt>
      <trkpt lat="47.99871" lon="0.10441">
        <ele>122.021</ele>
        <time>2009-09-26T14:09:41Z</time>
      </trkpt>
      <trkpt lat="47.99897" lon="0.10427">
        <ele>122.079</ele>
        <time>2009-09-26T14:09:47Z</time>
      </trkpt>
      <trkpt lat="47.99914" lon="0.10416">
        <ele>121.81</ele>
        <time>2009-09-26T14:09:51Z</time>
      </trkpt>
      <trkpt lat="47.99923" lon="0.10412">
        <ele>122.28</ele>
        <time>2009-09-26T14:09:53Z</time>
      </trkpt>
      <trkpt lat="47.99932" lon="0.10427">
        <ele>121.87</ele>
        <time>2009-09-26T14:09:57Z</time>
      </trkpt>
      <trkpt lat="47.99946" lon="0.10457">
        <ele>122.53</ele>
        <time>2009-09-26T14:10:02Z</time>
      </trkpt>
      <trkpt lat="47.99951" lon="0.10469">
        <ele>122.039</ele>
        <time>2009-09-26T14:10:04Z</time>
      </trkpt>
      <trkpt lat="47.99962" lon="0.10465">
        <ele>119.718</ele>
        <time>2009-09-26T14:10:08Z</time>
      </trkpt>
      <trkpt lat="47.99966" lon="0.10461">
        <ele>119.248</ele>
        <time>2009-09-26T14:10:09Z</time>
      </trkpt>
      <trkpt lat="47.99987" lon="0.10441">
        <ele>117.549</ele>
        <time>2009-09-26T14:10:14Z</time>
      </trkpt>
      <trkpt lat="47.99989" lon="0.10439">
        <ele>117.279</ele>
        <time>2009-09-26T14:10:15Z</time>
      </trkpt>
      <trkpt lat="47.99998" lon="0.10449">
        <ele>115.519</ele>
        <time>2009-09-26T14:10:19Z</time>
      </trkpt>
      <trkpt lat="48.00002" lon="0.10454">
        <ele>115.138</ele>
        <time>2009-09-26T14:10:20Z</time>
      </trkpt>
      <trkpt lat="48.00032" lon="0.10494">
        <ele>113.137</ele>
        <time>2009-09-26T14:10:26Z</time>
      </trkpt>
      <trkpt lat="48.00069" lon="0.10554">
        <ele>112.019</ele>
        <time>2009-09-26T14:10:33Z</time>
      </trkpt>
      <trkpt lat="48.00095" lon="0.10622">
        <ele>112.98</ele>
        <time>2009-09-26T14:10:40Z</time>
      </trkpt>
      <trkpt lat="48.00108" lon="0.10659">
        <ele>113.9</ele>
        <time>2009-09-26T14:10:45Z</time>
      </trkpt>
      <trkpt lat="48.00111" lon="0.10672">
        <ele>114.01</ele>
        <time>2009-09-26T14:10:49Z</time>
      </trkpt>
      <trkpt lat="48.00119" lon="0.10694">
        <ele>114.19</ele>
        <time>2009-09-26T14:10:55Z</time>
      </trkpt>
      <trkpt lat="48.00129" lon="0.1072">
        <ele>115.252</ele>
        <time>2009-09-26T14:11:01Z</time>
      </trkpt>
      <trkpt lat="48.00142" lon="0.1077">
        <ele>114.861</ele>
        <time>2009-09-26T14:11:11Z</time>
      </trkpt>
      <trkpt lat="48.00145" lon="0.10781">
        <ele>114.611</ele>
        <time>2009-09-26T14:11:13Z</time>
      </trkpt>
      <trkpt lat="48.00166" lon="0.10823">
        <ele>114.411</ele>
        <time>2009-09-26T14:11:21Z</time>
      </trkpt>
      <trkpt lat="48.00192" lon="0.10852">
        <ele>114.18</ele>
        <time>2009-09-26T14:11:27Z</time>
      </trkpt>
      <trkpt lat="48.0022" lon="0.10881">
        <ele>113.278</ele>
        <time>2009-09-26T14:11:32Z</time>
      </trkpt>
      <trkpt lat="48.00249" lon="0.10937">
        <ele>110.808</ele>
        <time>2009-09-26T14:11:38Z</time>
      </trkpt>
      <trkpt lat="48.00257" lon="0.1096">
        <ele>110.248</ele>
        <time>2009-09-26T14:11:40Z</time>
      </trkpt>
      <trkpt lat="48.0027" lon="0.11021">
        <ele>109.289</ele>
        <time>2009-09-26T14:11:46Z</time>
      </trkpt>
      <trkpt lat="48.00274" lon="0.11042">
        <ele>107.798</ele>
        <time>2009-09-26T14:11:50Z</time>
      </trkpt>
      <trkpt lat="48.00278" lon="0.11072">
        <ele>105.328</ele>
        <time>2009-09-26T14:11:54Z</time>
      </trkpt>
      <trkpt lat="48.00279" lon="0.11092">
        <ele>105.449</ele>
        <time>2009-09-26T14:11:56Z</time>
      </trkpt>
      <trkpt lat="48.00281" lon="0.11122">
        <ele>105.211</ele>
        <time>2009-09-26T14:11:59Z</time>
      </trkpt>
      <trkpt lat="48.00284" lon="0.11144">
        <ele>107.173</ele>
        <time>2009-09-26T14:12:01Z</time>
      </trkpt>
      <trkpt lat="48.00289" lon="0.11206">
        <ele>116.678</ele>
        <time>2009-09-26T14:12:06Z</time>
      </trkpt>
      <trkpt lat="48.00298" lon="0.11263">
        <ele>123.912</ele>
        <time>2009-09-26T14:12:10Z</time>
      </trkpt>
      <trkpt lat="48.00306" lon="0.11343">
        <ele>127.571</ele>
        <time>2009-09-26T14:12:16Z</time>
      </trkpt>
      <trkpt lat="48.00308" lon="0.11356">
        <ele>128.86</ele>
        <time>2009-09-26T14:12:17Z</time>
      </trkpt>
      <trkpt lat="48.00324" lon="0.11433">
        <ele>138.062</ele>
        <time>2009-09-26T14:12:24Z</time>
      </trkpt>
      <trkpt lat="48.0033" lon="0.11462">
        <ele>141.361</ele>
        <time>2009-09-26T14:12:27Z</time>
      </trkpt>
      <trkpt lat="48.00347" lon="0.11516">
        <ele>131.76</ele>
        <time>2009-09-26T14:12:33Z</time>
      </trkpt>
      <trkpt lat="48.00356" lon="0.11541">
        <ele>128.074</ele>
        <time>2009-09-26T14:12:36Z</time>
      </trkpt>
      <trkpt lat="48.00367" lon="0.11572">
        <ele>121.421</ele>
        <time>2009-09-26T14:12:41Z</time>
      </trkpt>
      <trkpt lat="48.00358" lon="0.11571">
        <ele>113.359</ele>
        <time>2009-09-26T14:12:46Z</time>
      </trkpt>
      <trkpt lat="48.00357" lon="0.11569">
        <ele>111.598</ele>
        <time>2009-09-26T14:12:47Z</time>
      </trkpt>
      <trkpt lat="48.00341" lon="0.11556">
        <ele>103.997</ele>
        <time>2009-09-26T14:12:53Z</time>
      </trkpt>
      <trkpt lat="48.00325" lon="0.11538">
        <ele>99.247</ele>
        <time>2009-09-26T14:12:58Z</time>
      </trkpt>
      <trkpt lat="48.00314" lon="0.11521">
        <ele>98.66</ele>
        <time>2009-09-26T14:13:02Z</time>
      </trkpt>
      <trkpt lat="48.00299" lon="0.11502">
        <ele>100.122</ele>
        <time>2009-09-26T14:13:07Z</time>
      </trkpt>
      <trkpt lat="48.00285" lon="0.11481">
        <ele>100.643</ele>
        <time>2009-09-26T14:13:12Z</time>
      </trkpt>
      <trkpt lat="48.00269" lon="0.11464">
        <ele>101.693</ele>
        <time>2009-09-26T14:13:18Z</time>
      </trkpt>
      <trkpt lat="48.00253" lon="0.11445">
        <ele>103.554</ele>
        <time>2009-09-26T14:13:24Z</time>
      </trkpt>
      <trkpt lat="48.00243" lon="0.11424">
        <ele>103.324</ele>
        <time>2009-09-26T14:13:29Z</time>
      </trkpt>
      <trkpt lat="48.00229" lon="0.11396">
        <ele>101.932</ele>
        <time>2009-09-26T14:13:36Z</time>
      </trkpt>
      <trkpt lat="48.00215" lon="0.11384">
        <ele>99.921</ele>
        <time>2009-09-26T14:13:41Z</time>
      </trkpt>
      <trkpt lat="48.002" lon="0.11374">
        <ele>99.712</ele>
        <time>2009-09-26T14:13:45Z</time>
      </trkpt>
      <trkpt lat="48.00183" lon="0.11364">
        <ele>99.571</ele>
        <time>2009-09-26T14:13:50Z</time>
      </trkpt>
      <trkpt lat="48.00163" lon="0.1135">
        <ele>97.3</ele>
        <time>2009-09-26T14:13:56Z</time>
      </trkpt>
      <trkpt lat="48.00154" lon="0.11332">
        <ele>95.517</ele>
        <time>2009-09-26T14:14:01Z</time>
      </trkpt>
      <trkpt lat="48.00142" lon="0.11307">
        <ele>94.717</ele>
        <time>2009-09-26T14:14:06Z</time>
      </trkpt>
      <trkpt lat="48.00129" lon="0.11288">
        <ele>94.539</ele>
        <time>2009-09-26T14:14:10Z</time>
      </trkpt>
      <trkpt lat="48.00114" lon="0.11265">
        <ele>96.85</ele>
        <time>2009-09-26T14:14:14Z</time>
      </trkpt>
      <trkpt lat="48.00099" lon="0.11239">
        <ele>97.12</ele>
        <time>2009-09-26T14:14:19Z</time>
      </trkpt>
      <trkpt lat="48.00096" lon="0.11234">
        <ele>97.25</ele>
        <time>2009-09-26T14:14:20Z</time>
      </trkpt>
      <trkpt lat="48.00073" lon="0.11205">
        <ele>95.758</ele>
        <time>2009-09-26T14:14:26Z</time>
      </trkpt>
      <trkpt lat="48.00069" lon="0.11199">
        <ele>96.009</ele>
        <time>2009-09-26T14:14:27Z</time>
      </trkpt>
      <trkpt lat="48.00046" lon="0.11156">
        <ele>97.98</ele>
        <time>2009-09-26T14:14:33Z</time>
      </trkpt>
      <trkpt lat="48.00025" lon="0.11107">
        <ele>101.842</ele>
        <time>2009-09-26T14:14:39Z</time>
      </trkpt>
      <trkpt lat="47.99992" lon="0.11048">
        <ele>105.623</ele>
        <time>2009-09-26T14:14:47Z</time>
      </trkpt>
      <trkpt lat="47.99967" lon="0.11009">
        <ele>108.684</ele>
        <time>2009-09-26T14:14:53Z</time>
      </trkpt>
      <trkpt lat="47.99951" lon="0.10986">
        <ele>108.933</ele>
        <time>2009-09-26T14:14:57Z</time>
      </trkpt>
      <trkpt lat="47.99924" lon="0.10956">
        <ele>109.501</ele>
        <time>2009-09-26T14:15:03Z</time>
      </trkpt>
      <trkpt lat="47.99887" lon="0.10919">
        <ele>108.889</ele>
        <time>2009-09-26T14:15:10Z</time>
      </trkpt>
      <trkpt lat="47.99857" lon="0.10887">
        <ele>107.95</ele>
        <time>2009-09-26T14:15:16Z</time>
      </trkpt>
      <trkpt lat="47.99854" lon="0.10881">
        <ele>108.251</ele>
        <time>2009-09-26T14:15:17Z</time>
      </trkpt>
      <trkpt lat="47.99838" lon="0.10868">
        <ele>108.821</ele>
        <time>2009-09-26T14:15:21Z</time>
      </trkpt>
      <trkpt lat="47.99808" lon="0.10835">
        <ele>109.35</ele>
        <time>2009-09-26T14:15:28Z</time>
      </trkpt>
      <trkpt lat="47.998" lon="0.10825">
        <ele>109.11</ele>
        <time>2009-09-26T14:15:30Z</time>
      </trkpt>
      <trkpt lat="47.99786" lon="0.10822">
        <ele>108.699</ele>
        <time>2009-09-26T14:15:34Z</time>
      </trkpt>
      <trkpt lat="47.99786" lon="0.10831">
        <ele>109.17</ele>
        <time>2009-09-26T14:15:36Z</time>
      </trkpt>
      <trkpt lat="47.99789" lon="0.10859">
        <ele>109.84</ele>
        <time>2009-09-26T14:15:41Z</time>
      </trkpt>
      <trkpt lat="47.99793" lon="0.10917">
        <ele>109.93</ele>
        <time>2009-09-26T14:15:48Z</time>
      </trkpt>
      <trkpt lat="47.99793" lon="0.10926">
        <ele>110.06</ele>
        <time>2009-09-26T14:15:49Z</time>
      </trkpt>
      <trkpt lat="47.99788" lon="0.10964">
        <ele>109.9</ele>
        <time>2009-09-26T14:15:53Z</time>
      </trkpt>
      <trkpt lat="47.9977" lon="0.11049">
        <ele>111.04</ele>
        <time>2009-09-26T14:16:02Z</time>
      </trkpt>
      <trkpt lat="47.99765" lon="0.11098">
        <ele>109.519</ele>
        <time>2009-09-26T14:16:07Z</time>
      </trkpt>
      <trkpt lat="47.99766" lon="0.11141">
        <ele>108.579</ele>
        <time>2009-09-26T14:16:12Z</time>
      </trkpt>
      <trkpt lat="47.99764" lon="0.11163">
        <ele>108</ele>
        <time>2009-09-26T14:16:15Z</time>
      </trkpt>
      <trkpt lat="47.9976" lon="0.11184">
        <ele>107.63</ele>
        <time>2009-09-26T14:16:18Z</time>
      </trkpt>
      <trkpt lat="47.99741" lon="0.11226">
        <ele>107.94</ele>
        <time>2009-09-26T14:16:26Z</time>
      </trkpt>
      <trkpt lat="47.99713" lon="0.11272">
        <ele>107.999</ele>
        <time>2009-09-26T14:16:35Z</time>
      </trkpt>
      <trkpt lat="47.99698" lon="0.11298">
        <ele>107.478</ele>
        <time>2009-09-26T14:16:40Z</time>
      </trkpt>
      <trkpt lat="47.99689" lon="0.11308">
        <ele>107.348</ele>
        <time>2009-09-26T14:16:44Z</time>
      </trkpt>
      <trkpt lat="47.99683" lon="0.11328">
        <ele>107.678</ele>
        <time>2009-09-26T14:16:50Z</time>
      </trkpt>
      <trkpt lat="47.99673" lon="0.11349">
        <ele>106.967</ele>
        <time>2009-09-26T14:16:54Z</time>
      </trkpt>
      <trkpt lat="47.99647" lon="0.11385">
        <ele>106.015</ele>
        <time>2009-09-26T14:17:00Z</time>
      </trkpt>
      <trkpt lat="47.99611" lon="0.1143">
        <ele>103.834</ele>
        <time>2009-09-26T14:17:06Z</time>
      </trkpt>
      <trkpt lat="47.99573" lon="0.1148">
        <ele>102.736</ele>
        <time>2009-09-26T14:17:12Z</time>
      </trkpt>
      <trkpt lat="47.99567" lon="0.11489">
        <ele>102.495</ele>
        <time>2009-09-26T14:17:13Z</time>
      </trkpt>
      <trkpt lat="47.99536" lon="0.11537">
        <ele>101.396</ele>
        <time>2009-09-26T14:17:19Z</time>
      </trkpt>
      <trkpt lat="47.99531" lon="0.11554">
        <ele>100.496</ele>
        <time>2009-09-26T14:17:23Z</time>
      </trkpt>
      <trkpt lat="47.9953" lon="0.11572">
        <ele>98.516</ele>
        <time>2009-09-26T14:17:27Z</time>
      </trkpt>
      <trkpt lat="47.99528" lon="0.11604">
        <ele>94.095</ele>
        <time>2009-09-26T14:17:32Z</time>
      </trkpt>
      <trkpt lat="47.99534" lon="0.11634">
        <ele>92.755</ele>
        <time>2009-09-26T14:17:36Z</time>
      </trkpt>
      <trkpt lat="47.99534" lon="0.11686">
        <ele>86.772</ele>
        <time>2009-09-26T14:17:41Z</time>
      </trkpt>
      <trkpt lat="47.99535" lon="0.11695">
        <ele>86.272</ele>
        <time>2009-09-26T14:17:42Z</time>
      </trkpt>
      <trkpt lat="47.9954" lon="0.11732">
        <ele>83.633</ele>
        <time>2009-09-26T14:17:46Z</time>
      </trkpt>
      <trkpt lat="47.99542" lon="0.11764">
        <ele>80.722</ele>
        <time>2009-09-26T14:17:49Z</time>
      </trkpt>
      <trkpt lat="47.99551" lon="0.11805">
        <ele>78.793</ele>
        <time>2009-09-26T14:17:54Z</time>
      </trkpt>
      <trkpt lat="47.99552" lon="0.11808">
        <ele>78.594</ele>
        <time>2009-09-26T14:17:55Z</time>
      </trkpt>
      <trkpt lat="47.99566" lon="0.11811">
        <ele>85.142</ele>
        <time>2009-09-26T14:18:00Z</time>
      </trkpt>
      <trkpt lat="47.9958" lon="0.11843">
        <ele>85.109</ele>
        <time>2009-09-26T14:18:06Z</time>
      </trkpt>
      <trkpt lat="47.99581" lon="0.11852">
        <ele>85.62</ele>
        <time>2009-09-26T14:18:07Z</time>
      </trkpt>
      <trkpt lat="47.99583" lon="0.11877">
        <ele>86.8</ele>
        <time>2009-09-26T14:18:10Z</time>
      </trkpt>
      <trkpt lat="47.99586" lon="0.11901">
        <ele>84.327</ele>
        <time>2009-09-26T14:18:13Z</time>
      </trkpt>
      <trkpt lat="47.99589" lon="0.11916">
        <ele>82.996</ele>
        <time>2009-09-26T14:18:15Z</time>
      </trkpt>
      <trkpt lat="47.99605" lon="0.11971">
        <ele>82.417</ele>
        <time>2009-09-26T14:18:22Z</time>
      </trkpt>
      <trkpt lat="47.99614" lon="0.11994">
        <ele>81.886</ele>
        <time>2009-09-26T14:18:25Z</time>
      </trkpt>
      <trkpt lat="47.99622" lon="0.12028">
        <ele>81.527</ele>
        <time>2009-09-26T14:18:29Z</time>
      </trkpt>
      <trkpt lat="47.99636" lon="0.12047">
        <ele>82.217</ele>
        <time>2009-09-26T14:18:33Z</time>
      </trkpt>
      <trkpt lat="47.99652" lon="0.12049">
        <ele>82.428</ele>
        <time>2009-09-26T14:18:36Z</time>
      </trkpt>
      <trkpt lat="47.99686" lon="0.12043">
        <ele>83.569</ele>
        <time>2009-09-26T14:18:43Z</time>
      </trkpt>
      <trkpt lat="47.99693" lon="0.12047">
        <ele>83.548</ele>
        <time>2009-09-26T14:18:47Z</time>
      </trkpt>
      <trkpt lat="47.99702" lon="0.12062">
        <ele>83.228</ele>
        <time>2009-09-26T14:18:51Z</time>
      </trkpt>
      <trkpt lat="47.99707" lon="0.12072">
        <ele>83.097</ele>
        <time>2009-09-26T14:18:53Z</time>
      </trkpt>
      <trkpt lat="47.99717" lon="0.12086">
        <ele>83.038</ele>
        <time>2009-09-26T14:18:56Z</time>
      </trkpt>
      <trkpt lat="47.99728" lon="0.121">
        <ele>83.098</ele>
        <time>2009-09-26T14:18:59Z</time>
      </trkpt>
      <trkpt lat="47.99733" lon="0.12127">
        <ele>83.548</ele>
        <time>2009-09-26T14:19:03Z</time>
      </trkpt>
      <trkpt lat="47.99727" lon="0.12138">
        <ele>83.749</ele>
        <time>2009-09-26T14:19:05Z</time>
      </trkpt>
      <trkpt lat="47.99688" lon="0.12204">
        <ele>82.379</ele>
        <time>2009-09-26T14:19:16Z</time>
      </trkpt>
      <trkpt lat="47.99658" lon="0.12254">
        <ele>81.949</ele>
        <time>2009-09-26T14:19:25Z</time>
      </trkpt>
      <trkpt lat="47.99628" lon="0.123">
        <ele>79.478</ele>
        <time>2009-09-26T14:19:33Z</time>
      </trkpt>
      <trkpt lat="47.99603" lon="0.12332">
        <ele>80.089</ele>
        <time>2009-09-26T14:19:39Z</time>
      </trkpt>
      <trkpt lat="47.9956" lon="0.12367">
        <ele>82.129</ele>
        <time>2009-09-26T14:19:48Z</time>
      </trkpt>
      <trkpt lat="47.99504" lon="0.12405">
        <ele>83.839</ele>
        <time>2009-09-26T14:19:59Z</time>
      </trkpt>
      <trkpt lat="47.99457" lon="0.12436">
        <ele>84.788</ele>
        <time>2009-09-26T14:20:08Z</time>
      </trkpt>
      <trkpt lat="47.99404" lon="0.12468">
        <ele>86.098</ele>
        <time>2009-09-26T14:20:18Z</time>
      </trkpt>
      <trkpt lat="47.99354" lon="0.12501">
        <ele>87.068</ele>
        <time>2009-09-26T14:20:27Z</time>
      </trkpt>
      <trkpt lat="47.99316" lon="0.12525">
        <ele>87.598</ele>
        <time>2009-09-26T14:20:34Z</time>
      </trkpt>
      <trkpt lat="47.99284" lon="0.12545">
        <ele>87.597</ele>
        <time>2009-09-26T14:20:41Z</time>
      </trkpt>
      <trkpt lat="47.99252" lon="0.12566">
        <ele>87.396</ele>
        <time>2009-09-26T14:20:48Z</time>
      </trkpt>
      <trkpt lat="47.99238" lon="0.12577">
        <ele>87.276</ele>
        <time>2009-09-26T14:20:51Z</time>
      </trkpt>
      <trkpt lat="47.99229" lon="0.12588">
        <ele>86.906</ele>
        <time>2009-09-26T14:20:53Z</time>
      </trkpt>
      <trkpt lat="47.99205" lon="0.12631">
        <ele>84.554</ele>
        <time>2009-09-26T14:20:59Z</time>
      </trkpt>
      <trkpt lat="47.9918" lon="0.1267">
        <ele>83.515</ele>
        <time>2009-09-26T14:21:04Z</time>
      </trkpt>
      <trkpt lat="47.9914" lon="0.12714">
        <ele>83.755</ele>
        <time>2009-09-26T14:21:10Z</time>
      </trkpt>
      <trkpt lat="47.99099" lon="0.12757">
        <ele>81.864</ele>
        <time>2009-09-26T14:21:15Z</time>
      </trkpt>
      <trkpt lat="47.99053" lon="0.12805">
        <ele>79.183</ele>
        <time>2009-09-26T14:21:21Z</time>
      </trkpt>
      <trkpt lat="47.99019" lon="0.12845">
        <ele>76.192</ele>
        <time>2009-09-26T14:21:26Z</time>
      </trkpt>
      <trkpt lat="47.98988" lon="0.12888">
        <ele>72.252</ele>
        <time>2009-09-26T14:21:32Z</time>
      </trkpt>
      <trkpt lat="47.98956" lon="0.12934">
        <ele>69.102</ele>
        <time>2009-09-26T14:21:38Z</time>
      </trkpt>
    </trkseg>
  </trk>
</gpx>